<?xml version="1.0" encoding="UTF-8" standalone="no" ?>
<gpx xmlns="http://www.topografix.com/GPX/1/1" xmlns:xsi="http://www.w3.org/2001/XMLSchema-instance" xsi:schemaLocation="http://www.topografix.com/GPX/1/1 http://www.topografix.com/GPX/1/1/gpx.xsd" version="1.1" creator="VisuGPX - https://www.visugpx.com">
  <metadata>
    <name>Circuit-du-chaperon-rouge</name>
    <desc><![CDATA[Au départ de MONTENEUF
Le circuit du Chaperon rouge (15 km) :
- les étangs du Chaperon rouge, de Quéhéon et de La Priaudais
- le lavoir et la fontaine de Trézon]]></desc>
  </metadata>
  <trk>
    <name><![CDATA[tour velo2]]></name>
    <desc><![CDATA[À partir de la Piste Active]]></desc>
    <trkseg>
      <trkpt lat="47.87238" lon="-2.20945">
        <ele>77.34375</ele>
        <time>2013-12-08T10:13:32Z</time>
      </trkpt>
      <trkpt lat="47.87237" lon="-2.2093">
        <ele>109.796875</ele>
        <time>2013-12-08T10:16:36Z</time>
      </trkpt>
      <trkpt lat="47.8724" lon="-2.20917">
        <ele>110.699219</ele>
        <time>2013-12-08T10:17:26Z</time>
      </trkpt>
      <trkpt lat="47.87244" lon="-2.20905">
        <ele>107</ele>
        <time>2013-12-08T10:17:38Z</time>
      </trkpt>
      <trkpt lat="47.87252" lon="-2.20897">
        <ele>107.796875</ele>
        <time>2013-12-08T10:17:48Z</time>
      </trkpt>
      <trkpt lat="47.87261" lon="-2.20894">
        <ele>108.5</ele>
        <time>2013-12-08T10:17:57Z</time>
      </trkpt>
      <trkpt lat="47.8727" lon="-2.20891">
        <ele>108.296875</ele>
        <time>2013-12-08T10:18:06Z</time>
      </trkpt>
      <trkpt lat="47.8728" lon="-2.20891">
        <ele>109.296875</ele>
        <time>2013-12-08T10:18:16Z</time>
      </trkpt>
      <trkpt lat="47.87289" lon="-2.20893">
        <ele>110.398438</ele>
        <time>2013-12-08T10:18:26Z</time>
      </trkpt>
      <trkpt lat="47.87298" lon="-2.20887">
        <ele>112.5</ele>
        <time>2013-12-08T10:18:34Z</time>
      </trkpt>
      <trkpt lat="47.87306" lon="-2.20877">
        <ele>112.597656</ele>
        <time>2013-12-08T10:18:43Z</time>
      </trkpt>
      <trkpt lat="47.87319" lon="-2.20854">
        <ele>110.796875</ele>
        <time>2013-12-08T10:18:59Z</time>
      </trkpt>
      <trkpt lat="47.87325" lon="-2.20843">
        <ele>110.199219</ele>
        <time>2013-12-08T10:19:06Z</time>
      </trkpt>
      <trkpt lat="47.87331" lon="-2.20832">
        <ele>109.796875</ele>
        <time>2013-12-08T10:19:13Z</time>
      </trkpt>
      <trkpt lat="47.87335" lon="-2.20818">
        <ele>109.398438</ele>
        <time>2013-12-08T10:19:20Z</time>
      </trkpt>
      <trkpt lat="47.87339" lon="-2.20805">
        <ele>109.097656</ele>
        <time>2013-12-08T10:19:28Z</time>
      </trkpt>
      <trkpt lat="47.87347" lon="-2.20795">
        <ele>109.398438</ele>
        <time>2013-12-08T10:19:37Z</time>
      </trkpt>
      <trkpt lat="47.87357" lon="-2.2079">
        <ele>110.199219</ele>
        <time>2013-12-08T10:19:45Z</time>
      </trkpt>
      <trkpt lat="47.87374" lon="-2.2078">
        <ele>108.296875</ele>
        <time>2013-12-08T10:20:04Z</time>
      </trkpt>
      <trkpt lat="47.87384" lon="-2.20777">
        <ele>99.898438</ele>
        <time>2013-12-08T10:20:14Z</time>
      </trkpt>
      <trkpt lat="47.8738" lon="-2.20764">
        <ele>102</ele>
        <time>2013-12-08T10:20:46Z</time>
      </trkpt>
      <trkpt lat="47.87381" lon="-2.2075">
        <ele>103.097656</ele>
        <time>2013-12-08T10:20:54Z</time>
      </trkpt>
      <trkpt lat="47.87384" lon="-2.20736">
        <ele>104.699219</ele>
        <time>2013-12-08T10:21:02Z</time>
      </trkpt>
      <trkpt lat="47.87389" lon="-2.20724">
        <ele>105.796875</ele>
        <time>2013-12-08T10:21:10Z</time>
      </trkpt>
      <trkpt lat="47.874" lon="-2.20698">
        <ele>106.699219</ele>
        <time>2013-12-08T10:21:26Z</time>
      </trkpt>
      <trkpt lat="47.87408" lon="-2.20691">
        <ele>107.5</ele>
        <time>2013-12-08T10:21:33Z</time>
      </trkpt>
      <trkpt lat="47.87417" lon="-2.20686">
        <ele>110.097656</ele>
        <time>2013-12-08T10:21:41Z</time>
      </trkpt>
      <trkpt lat="47.87426" lon="-2.20681">
        <ele>112.898438</ele>
        <time>2013-12-08T10:21:50Z</time>
      </trkpt>
      <trkpt lat="47.87435" lon="-2.20679">
        <ele>106</ele>
        <time>2013-12-08T10:21:57Z</time>
      </trkpt>
      <trkpt lat="47.87444" lon="-2.20678">
        <ele>105.699219</ele>
        <time>2013-12-08T10:22:11Z</time>
      </trkpt>
      <trkpt lat="47.87453" lon="-2.20674">
        <ele>107.597656</ele>
        <time>2013-12-08T10:22:18Z</time>
      </trkpt>
      <trkpt lat="47.87473" lon="-2.20667">
        <ele>109.796875</ele>
        <time>2013-12-08T10:22:32Z</time>
      </trkpt>
      <trkpt lat="47.87491" lon="-2.20663">
        <ele>113.296875</ele>
        <time>2013-12-08T10:22:50Z</time>
      </trkpt>
      <trkpt lat="47.875" lon="-2.20658">
        <ele>112.449219</ele>
        <time>2013-12-08T10:22:59Z</time>
      </trkpt>
      <trkpt lat="47.8751" lon="-2.20656">
        <ele>112.207031</ele>
        <time>2013-12-08T10:23:09Z</time>
      </trkpt>
      <trkpt lat="47.87529" lon="-2.20653">
        <ele>112.5</ele>
        <time>2013-12-08T10:23:37Z</time>
      </trkpt>
      <trkpt lat="47.87538" lon="-2.2065">
        <ele>113.5</ele>
        <time>2013-12-08T10:23:46Z</time>
      </trkpt>
      <trkpt lat="47.87558" lon="-2.20642">
        <ele>115.199219</ele>
        <time>2013-12-08T10:24:04Z</time>
      </trkpt>
      <trkpt lat="47.87567" lon="-2.20637">
        <ele>115.699219</ele>
        <time>2013-12-08T10:24:13Z</time>
      </trkpt>
      <trkpt lat="47.87584" lon="-2.20625">
        <ele>111.355469</ele>
        <time>2013-12-08T10:24:29Z</time>
      </trkpt>
      <trkpt lat="47.87602" lon="-2.20616">
        <ele>114.269531</ele>
        <time>2013-12-08T10:24:45Z</time>
      </trkpt>
      <trkpt lat="47.87611" lon="-2.20617">
        <ele>116.597656</ele>
        <time>2013-12-08T10:24:57Z</time>
      </trkpt>
      <trkpt lat="47.8762" lon="-2.20623">
        <ele>121.296875</ele>
        <time>2013-12-08T10:25:03Z</time>
      </trkpt>
      <trkpt lat="47.87638" lon="-2.20631">
        <ele>121.296875</ele>
        <time>2013-12-08T10:25:20Z</time>
      </trkpt>
      <trkpt lat="47.87647" lon="-2.20635">
        <ele>120.796875</ele>
        <time>2013-12-08T10:25:28Z</time>
      </trkpt>
      <trkpt lat="47.87659" lon="-2.20638">
        <ele>120.699219</ele>
        <time>2013-12-08T10:25:40Z</time>
      </trkpt>
      <trkpt lat="47.87686" lon="-2.20646">
        <ele>124.898438</ele>
        <time>2013-12-08T10:26:05Z</time>
      </trkpt>
      <trkpt lat="47.87694" lon="-2.20654">
        <ele>126</ele>
        <time>2013-12-08T10:26:14Z</time>
      </trkpt>
      <trkpt lat="47.87704" lon="-2.20655">
        <ele>124.699219</ele>
        <time>2013-12-08T10:26:24Z</time>
      </trkpt>
      <trkpt lat="47.87713" lon="-2.20658">
        <ele>128</ele>
        <time>2013-12-08T10:26:34Z</time>
      </trkpt>
      <trkpt lat="47.87721" lon="-2.20652">
        <ele>125.5</ele>
        <time>2013-12-08T10:27:12Z</time>
      </trkpt>
      <trkpt lat="47.87731" lon="-2.20651">
        <ele>124.5</ele>
        <time>2013-12-08T10:27:21Z</time>
      </trkpt>
      <trkpt lat="47.8774" lon="-2.20656">
        <ele>124</ele>
        <time>2013-12-08T10:27:30Z</time>
      </trkpt>
      <trkpt lat="47.87749" lon="-2.20659">
        <ele>123.5</ele>
        <time>2013-12-08T10:27:38Z</time>
      </trkpt>
      <trkpt lat="47.87767" lon="-2.20664">
        <ele>125.898438</ele>
        <time>2013-12-08T10:27:57Z</time>
      </trkpt>
      <trkpt lat="47.87777" lon="-2.20665">
        <ele>127.898438</ele>
        <time>2013-12-08T10:28:04Z</time>
      </trkpt>
      <trkpt lat="47.87804" lon="-2.20669">
        <ele>125.097656</ele>
        <time>2013-12-08T10:28:28Z</time>
      </trkpt>
      <trkpt lat="47.87814" lon="-2.20666">
        <ele>124</ele>
        <time>2013-12-08T10:28:35Z</time>
      </trkpt>
      <trkpt lat="47.87823" lon="-2.20661">
        <ele>123.699219</ele>
        <time>2013-12-08T10:28:42Z</time>
      </trkpt>
      <trkpt lat="47.87858" lon="-2.20637">
        <ele>126.898438</ele>
        <time>2013-12-08T10:29:11Z</time>
      </trkpt>
      <trkpt lat="47.87864" lon="-2.20628">
        <ele>126.398438</ele>
        <time>2013-12-08T10:29:19Z</time>
      </trkpt>
      <trkpt lat="47.87871" lon="-2.20618">
        <ele>123</ele>
        <time>2013-12-08T10:29:30Z</time>
      </trkpt>
      <trkpt lat="47.87873" lon="-2.20604">
        <ele>119.898438</ele>
        <time>2013-12-08T10:29:40Z</time>
      </trkpt>
      <trkpt lat="47.87872" lon="-2.2059">
        <ele>120.097656</ele>
        <time>2013-12-08T10:30:03Z</time>
      </trkpt>
      <trkpt lat="47.87866" lon="-2.20581">
        <ele>121.296875</ele>
        <time>2013-12-08T10:30:14Z</time>
      </trkpt>
      <trkpt lat="47.87859" lon="-2.2057">
        <ele>120.796875</ele>
        <time>2013-12-08T10:30:27Z</time>
      </trkpt>
      <trkpt lat="47.87857" lon="-2.20557">
        <ele>121.398438</ele>
        <time>2013-12-08T10:30:38Z</time>
      </trkpt>
      <trkpt lat="47.87852" lon="-2.20543">
        <ele>122</ele>
        <time>2013-12-08T10:30:47Z</time>
      </trkpt>
      <trkpt lat="47.87847" lon="-2.20531">
        <ele>122.898438</ele>
        <time>2013-12-08T10:30:55Z</time>
      </trkpt>
      <trkpt lat="47.87841" lon="-2.20519">
        <ele>122.699219</ele>
        <time>2013-12-08T10:31:03Z</time>
      </trkpt>
      <trkpt lat="47.87835" lon="-2.20508">
        <ele>123.097656</ele>
        <time>2013-12-08T10:31:11Z</time>
      </trkpt>
      <trkpt lat="47.8783" lon="-2.20494">
        <ele>125.097656</ele>
        <time>2013-12-08T10:31:19Z</time>
      </trkpt>
      <trkpt lat="47.87807" lon="-2.20432">
        <ele>130.296875</ele>
        <time>2013-12-08T10:31:54Z</time>
      </trkpt>
      <trkpt lat="47.87801" lon="-2.2042">
        <ele>132.5</ele>
        <time>2013-12-08T10:32:02Z</time>
      </trkpt>
      <trkpt lat="47.87795" lon="-2.2041">
        <ele>132.898438</ele>
        <time>2013-12-08T10:32:10Z</time>
      </trkpt>
      <trkpt lat="47.8779" lon="-2.20397">
        <ele>133.097656</ele>
        <time>2013-12-08T10:32:19Z</time>
      </trkpt>
      <trkpt lat="47.87787" lon="-2.20383">
        <ele>132.796875</ele>
        <time>2013-12-08T10:32:26Z</time>
      </trkpt>
      <trkpt lat="47.87782" lon="-2.20371">
        <ele>132.398438</ele>
        <time>2013-12-08T10:32:34Z</time>
      </trkpt>
      <trkpt lat="47.8778" lon="-2.20357">
        <ele>128.199219</ele>
        <time>2013-12-08T10:32:42Z</time>
      </trkpt>
      <trkpt lat="47.87786" lon="-2.20345">
        <ele>126.597656</ele>
        <time>2013-12-08T10:32:55Z</time>
      </trkpt>
      <trkpt lat="47.87794" lon="-2.20338">
        <ele>125.796875</ele>
        <time>2013-12-08T10:33:04Z</time>
      </trkpt>
      <trkpt lat="47.87803" lon="-2.20331">
        <ele>126.097656</ele>
        <time>2013-12-08T10:33:13Z</time>
      </trkpt>
      <trkpt lat="47.87847" lon="-2.20301">
        <ele>126.597656</ele>
        <time>2013-12-08T10:33:53Z</time>
      </trkpt>
      <trkpt lat="47.87947" lon="-2.20245">
        <ele>121.296875</ele>
        <time>2013-12-08T10:35:13Z</time>
      </trkpt>
      <trkpt lat="47.87956" lon="-2.20239">
        <ele>121</ele>
        <time>2013-12-08T10:35:21Z</time>
      </trkpt>
      <trkpt lat="47.87964" lon="-2.20231">
        <ele>122.398438</ele>
        <time>2013-12-08T10:35:28Z</time>
      </trkpt>
      <trkpt lat="47.87997" lon="-2.20201">
        <ele>123.699219</ele>
        <time>2013-12-08T10:35:53Z</time>
      </trkpt>
      <trkpt lat="47.88012" lon="-2.20183">
        <ele>124.296875</ele>
        <time>2013-12-08T10:36:07Z</time>
      </trkpt>
      <trkpt lat="47.88124" lon="-2.2005">
        <ele>125.597656</ele>
        <time>2013-12-08T10:38:02Z</time>
      </trkpt>
      <trkpt lat="47.88176" lon="-2.19985">
        <ele>123.5</ele>
        <time>2013-12-08T10:39:02Z</time>
      </trkpt>
      <trkpt lat="47.88182" lon="-2.19975">
        <ele>122.699219</ele>
        <time>2013-12-08T10:39:09Z</time>
      </trkpt>
      <trkpt lat="47.88187" lon="-2.19962">
        <ele>123.796875</ele>
        <time>2013-12-08T10:39:17Z</time>
      </trkpt>
      <trkpt lat="47.88193" lon="-2.19951">
        <ele>124.296875</ele>
        <time>2013-12-08T10:39:24Z</time>
      </trkpt>
      <trkpt lat="47.88203" lon="-2.19952">
        <ele>125</ele>
        <time>2013-12-08T10:39:33Z</time>
      </trkpt>
      <trkpt lat="47.88212" lon="-2.19955">
        <ele>127.386719</ele>
        <time>2013-12-08T10:39:41Z</time>
      </trkpt>
      <trkpt lat="47.88218" lon="-2.19945">
        <ele>126.097656</ele>
        <time>2013-12-08T10:41:02Z</time>
      </trkpt>
      <trkpt lat="47.88227" lon="-2.19952">
        <ele>125.796875</ele>
        <time>2013-12-08T10:41:59Z</time>
      </trkpt>
      <trkpt lat="47.88236" lon="-2.19958">
        <ele>125.597656</ele>
        <time>2013-12-08T10:42:09Z</time>
      </trkpt>
      <trkpt lat="47.88247" lon="-2.19964">
        <ele>126.570313</ele>
        <time>2013-12-08T10:42:28Z</time>
      </trkpt>
      <trkpt lat="47.88271" lon="-2.1997">
        <ele>139.296875</ele>
        <time>2013-12-08T10:44:24Z</time>
      </trkpt>
      <trkpt lat="47.8828" lon="-2.19972">
        <ele>124.296875</ele>
        <time>2013-12-08T10:44:47Z</time>
      </trkpt>
      <trkpt lat="47.8829" lon="-2.19973">
        <ele>122.097656</ele>
        <time>2013-12-08T10:44:56Z</time>
      </trkpt>
      <trkpt lat="47.88318" lon="-2.19975">
        <ele>115.5</ele>
        <time>2013-12-08T10:45:21Z</time>
      </trkpt>
      <trkpt lat="47.88327" lon="-2.19978">
        <ele>115.597656</ele>
        <time>2013-12-08T10:45:30Z</time>
      </trkpt>
      <trkpt lat="47.88337" lon="-2.19979">
        <ele>115.699219</ele>
        <time>2013-12-08T10:45:37Z</time>
      </trkpt>
      <trkpt lat="47.88346" lon="-2.19981">
        <ele>118</ele>
        <time>2013-12-08T10:45:44Z</time>
      </trkpt>
      <trkpt lat="47.88355" lon="-2.19982">
        <ele>119.5</ele>
        <time>2013-12-08T10:45:51Z</time>
      </trkpt>
      <trkpt lat="47.88364" lon="-2.19981">
        <ele>120.296875</ele>
        <time>2013-12-08T10:45:57Z</time>
      </trkpt>
      <trkpt lat="47.88374" lon="-2.19977">
        <ele>120.699219</ele>
        <time>2013-12-08T10:46:03Z</time>
      </trkpt>
      <trkpt lat="47.88382" lon="-2.19972">
        <ele>121.5</ele>
        <time>2013-12-08T10:46:09Z</time>
      </trkpt>
      <trkpt lat="47.88391" lon="-2.19963">
        <ele>121.398438</ele>
        <time>2013-12-08T10:46:23Z</time>
      </trkpt>
      <trkpt lat="47.88397" lon="-2.19953">
        <ele>120.5</ele>
        <time>2013-12-08T10:46:32Z</time>
      </trkpt>
      <trkpt lat="47.88402" lon="-2.19941">
        <ele>121.398438</ele>
        <time>2013-12-08T10:46:40Z</time>
      </trkpt>
      <trkpt lat="47.88405" lon="-2.19928">
        <ele>121.097656</ele>
        <time>2013-12-08T10:46:48Z</time>
      </trkpt>
      <trkpt lat="47.88404" lon="-2.19913">
        <ele>121.699219</ele>
        <time>2013-12-08T10:46:56Z</time>
      </trkpt>
      <trkpt lat="47.88404" lon="-2.19898">
        <ele>122.296875</ele>
        <time>2013-12-08T10:47:04Z</time>
      </trkpt>
      <trkpt lat="47.88405" lon="-2.19884">
        <ele>123.699219</ele>
        <time>2013-12-08T10:47:11Z</time>
      </trkpt>
      <trkpt lat="47.88411" lon="-2.19872">
        <ele>124.5</ele>
        <time>2013-12-08T10:47:18Z</time>
      </trkpt>
      <trkpt lat="47.88417" lon="-2.19861">
        <ele>124.699219</ele>
        <time>2013-12-08T10:47:26Z</time>
      </trkpt>
      <trkpt lat="47.88425" lon="-2.19851">
        <ele>125.699219</ele>
        <time>2013-12-08T10:47:34Z</time>
      </trkpt>
      <trkpt lat="47.88434" lon="-2.19845">
        <ele>124.296875</ele>
        <time>2013-12-08T10:47:47Z</time>
      </trkpt>
      <trkpt lat="47.88443" lon="-2.19844">
        <ele>123.398438</ele>
        <time>2013-12-08T10:48:02Z</time>
      </trkpt>
      <trkpt lat="47.88454" lon="-2.19846">
        <ele>122.5</ele>
        <time>2013-12-08T10:48:17Z</time>
      </trkpt>
      <trkpt lat="47.88463" lon="-2.19845">
        <ele>124.699219</ele>
        <time>2013-12-08T10:48:25Z</time>
      </trkpt>
      <trkpt lat="47.88483" lon="-2.1984">
        <ele>129</ele>
        <time>2013-12-08T10:48:40Z</time>
      </trkpt>
      <trkpt lat="47.88492" lon="-2.19837">
        <ele>130.398438</ele>
        <time>2013-12-08T10:48:47Z</time>
      </trkpt>
      <trkpt lat="47.88501" lon="-2.19839">
        <ele>129.398438</ele>
        <time>2013-12-08T10:48:54Z</time>
      </trkpt>
      <trkpt lat="47.88508" lon="-2.1985">
        <ele>128.5</ele>
        <time>2013-12-08T10:49:04Z</time>
      </trkpt>
      <trkpt lat="47.88509" lon="-2.19864">
        <ele>125.097656</ele>
        <time>2013-12-08T10:49:14Z</time>
      </trkpt>
      <trkpt lat="47.88507" lon="-2.19878">
        <ele>122.597656</ele>
        <time>2013-12-08T10:49:23Z</time>
      </trkpt>
      <trkpt lat="47.88502" lon="-2.19911">
        <ele>124</ele>
        <time>2013-12-08T10:49:41Z</time>
      </trkpt>
      <trkpt lat="47.88498" lon="-2.19925">
        <ele>124.296875</ele>
        <time>2013-12-08T10:49:47Z</time>
      </trkpt>
      <trkpt lat="47.88494" lon="-2.19939">
        <ele>123.898438</ele>
        <time>2013-12-08T10:49:53Z</time>
      </trkpt>
      <trkpt lat="47.88491" lon="-2.19954">
        <ele>121.699219</ele>
        <time>2013-12-08T10:50:00Z</time>
      </trkpt>
      <trkpt lat="47.88491" lon="-2.1997">
        <ele>120.699219</ele>
        <time>2013-12-08T10:50:07Z</time>
      </trkpt>
      <trkpt lat="47.88492" lon="-2.19984">
        <ele>120.796875</ele>
        <time>2013-12-08T10:50:15Z</time>
      </trkpt>
      <trkpt lat="47.88496" lon="-2.19997">
        <ele>121.699219</ele>
        <time>2013-12-08T10:50:23Z</time>
      </trkpt>
      <trkpt lat="47.88512" lon="-2.20049">
        <ele>114.597656</ele>
        <time>2013-12-08T10:50:55Z</time>
      </trkpt>
      <trkpt lat="47.88517" lon="-2.20061">
        <ele>114.097656</ele>
        <time>2013-12-08T10:51:03Z</time>
      </trkpt>
      <trkpt lat="47.88522" lon="-2.20073">
        <ele>116.097656</ele>
        <time>2013-12-08T10:51:10Z</time>
      </trkpt>
      <trkpt lat="47.88531" lon="-2.20076">
        <ele>120.398438</ele>
        <time>2013-12-08T10:51:19Z</time>
      </trkpt>
      <trkpt lat="47.88541" lon="-2.20074">
        <ele>122.796875</ele>
        <time>2013-12-08T10:51:27Z</time>
      </trkpt>
      <trkpt lat="47.8855" lon="-2.20071">
        <ele>123.796875</ele>
        <time>2013-12-08T10:51:34Z</time>
      </trkpt>
      <trkpt lat="47.88569" lon="-2.20063">
        <ele>122.796875</ele>
        <time>2013-12-08T10:51:52Z</time>
      </trkpt>
      <trkpt lat="47.88578" lon="-2.20058">
        <ele>125.765625</ele>
        <time>2013-12-08T10:52:02Z</time>
      </trkpt>
      <trkpt lat="47.88587" lon="-2.20056">
        <ele>130.199219</ele>
        <time>2013-12-08T10:52:56Z</time>
      </trkpt>
      <trkpt lat="47.88596" lon="-2.20053">
        <ele>127.199219</ele>
        <time>2013-12-08T10:53:10Z</time>
      </trkpt>
      <trkpt lat="47.88603" lon="-2.20045">
        <ele>124.097656</ele>
        <time>2013-12-08T10:53:21Z</time>
      </trkpt>
      <trkpt lat="47.88612" lon="-2.20039">
        <ele>122.097656</ele>
        <time>2013-12-08T10:53:31Z</time>
      </trkpt>
      <trkpt lat="47.88629" lon="-2.20027">
        <ele>121.699219</ele>
        <time>2013-12-08T10:53:49Z</time>
      </trkpt>
      <trkpt lat="47.88656" lon="-2.20012">
        <ele>125.398438</ele>
        <time>2013-12-08T10:54:12Z</time>
      </trkpt>
      <trkpt lat="47.8873" lon="-2.19971">
        <ele>135.398438</ele>
        <time>2013-12-08T10:55:29Z</time>
      </trkpt>
      <trkpt lat="47.88739" lon="-2.19969">
        <ele>132.296875</ele>
        <time>2013-12-08T10:55:39Z</time>
      </trkpt>
      <trkpt lat="47.88748" lon="-2.19965">
        <ele>130.398438</ele>
        <time>2013-12-08T10:55:48Z</time>
      </trkpt>
      <trkpt lat="47.88766" lon="-2.19955">
        <ele>128.699219</ele>
        <time>2013-12-08T10:56:05Z</time>
      </trkpt>
      <trkpt lat="47.88775" lon="-2.19948">
        <ele>129.597656</ele>
        <time>2013-12-08T10:56:14Z</time>
      </trkpt>
      <trkpt lat="47.88779" lon="-2.19935">
        <ele>130.097656</ele>
        <time>2013-12-08T10:56:24Z</time>
      </trkpt>
      <trkpt lat="47.88781" lon="-2.19921">
        <ele>132.597656</ele>
        <time>2013-12-08T10:56:36Z</time>
      </trkpt>
      <trkpt lat="47.88782" lon="-2.19907">
        <ele>133.898438</ele>
        <time>2013-12-08T10:56:44Z</time>
      </trkpt>
      <trkpt lat="47.8878" lon="-2.19893">
        <ele>133.796875</ele>
        <time>2013-12-08T10:56:51Z</time>
      </trkpt>
      <trkpt lat="47.88776" lon="-2.19866">
        <ele>133.097656</ele>
        <time>2013-12-08T10:57:08Z</time>
      </trkpt>
      <trkpt lat="47.88772" lon="-2.19838">
        <ele>137.296875</ele>
        <time>2013-12-08T10:57:23Z</time>
      </trkpt>
      <trkpt lat="47.88769" lon="-2.19825">
        <ele>136.597656</ele>
        <time>2013-12-08T10:57:30Z</time>
      </trkpt>
      <trkpt lat="47.88763" lon="-2.19798">
        <ele>137.597656</ele>
        <time>2013-12-08T10:57:45Z</time>
      </trkpt>
      <trkpt lat="47.88757" lon="-2.19754">
        <ele>140.898438</ele>
        <time>2013-12-08T10:58:09Z</time>
      </trkpt>
      <trkpt lat="47.88756" lon="-2.19739">
        <ele>140.296875</ele>
        <time>2013-12-08T10:58:18Z</time>
      </trkpt>
      <trkpt lat="47.88758" lon="-2.19724">
        <ele>137.5</ele>
        <time>2013-12-08T10:58:26Z</time>
      </trkpt>
      <trkpt lat="47.88761" lon="-2.1971">
        <ele>136.398438</ele>
        <time>2013-12-08T10:58:34Z</time>
      </trkpt>
      <trkpt lat="47.88765" lon="-2.19697">
        <ele>135.597656</ele>
        <time>2013-12-08T10:58:43Z</time>
      </trkpt>
      <trkpt lat="47.8877" lon="-2.19684">
        <ele>134.796875</ele>
        <time>2013-12-08T10:58:53Z</time>
      </trkpt>
      <trkpt lat="47.88775" lon="-2.19672">
        <ele>132.5</ele>
        <time>2013-12-08T10:59:01Z</time>
      </trkpt>
      <trkpt lat="47.88797" lon="-2.19624">
        <ele>131.5</ele>
        <time>2013-12-08T10:59:34Z</time>
      </trkpt>
      <trkpt lat="47.88804" lon="-2.19613">
        <ele>130.699219</ele>
        <time>2013-12-08T10:59:42Z</time>
      </trkpt>
      <trkpt lat="47.88816" lon="-2.19592">
        <ele>132</ele>
        <time>2013-12-08T10:59:57Z</time>
      </trkpt>
      <trkpt lat="47.8882" lon="-2.19579">
        <ele>133.5</ele>
        <time>2013-12-08T11:00:05Z</time>
      </trkpt>
      <trkpt lat="47.88815" lon="-2.19567">
        <ele>133.398438</ele>
        <time>2013-12-08T11:00:16Z</time>
      </trkpt>
      <trkpt lat="47.88806" lon="-2.19561">
        <ele>135.097656</ele>
        <time>2013-12-08T11:00:26Z</time>
      </trkpt>
      <trkpt lat="47.88798" lon="-2.19555">
        <ele>138.796875</ele>
        <time>2013-12-08T11:00:36Z</time>
      </trkpt>
      <trkpt lat="47.88797" lon="-2.19541">
        <ele>138.796875</ele>
        <time>2013-12-08T11:00:48Z</time>
      </trkpt>
      <trkpt lat="47.88796" lon="-2.19528">
        <ele>137</ele>
        <time>2013-12-08T11:00:59Z</time>
      </trkpt>
      <trkpt lat="47.88798" lon="-2.19514">
        <ele>137.898438</ele>
        <time>2013-12-08T11:01:09Z</time>
      </trkpt>
      <trkpt lat="47.88802" lon="-2.195">
        <ele>139.398438</ele>
        <time>2013-12-08T11:01:17Z</time>
      </trkpt>
      <trkpt lat="47.88803" lon="-2.19486">
        <ele>141.398438</ele>
        <time>2013-12-08T11:01:25Z</time>
      </trkpt>
      <trkpt lat="47.88803" lon="-2.19471">
        <ele>140.597656</ele>
        <time>2013-12-08T11:01:33Z</time>
      </trkpt>
      <trkpt lat="47.88805" lon="-2.19457">
        <ele>139.597656</ele>
        <time>2013-12-08T11:01:42Z</time>
      </trkpt>
      <trkpt lat="47.888" lon="-2.19444">
        <ele>140.398438</ele>
        <time>2013-12-08T11:01:53Z</time>
      </trkpt>
      <trkpt lat="47.88792" lon="-2.1944">
        <ele>141.796875</ele>
        <time>2013-12-08T11:02:04Z</time>
      </trkpt>
      <trkpt lat="47.88755" lon="-2.19422">
        <ele>149.546875</ele>
        <time>2013-12-08T11:02:41Z</time>
      </trkpt>
      <trkpt lat="47.88749" lon="-2.19412">
        <ele>150.796875</ele>
        <time>2013-12-08T11:02:51Z</time>
      </trkpt>
      <trkpt lat="47.88741" lon="-2.19403">
        <ele>152.296875</ele>
        <time>2013-12-08T11:02:59Z</time>
      </trkpt>
      <trkpt lat="47.88738" lon="-2.19391">
        <ele>150.796875</ele>
        <time>2013-12-08T11:03:08Z</time>
      </trkpt>
      <trkpt lat="47.8874" lon="-2.19376">
        <ele>148.796875</ele>
        <time>2013-12-08T11:03:17Z</time>
      </trkpt>
      <trkpt lat="47.88747" lon="-2.19336">
        <ele>143.898438</ele>
        <time>2013-12-08T11:03:40Z</time>
      </trkpt>
      <trkpt lat="47.88751" lon="-2.19322">
        <ele>142.597656</ele>
        <time>2013-12-08T11:03:49Z</time>
      </trkpt>
      <trkpt lat="47.88763" lon="-2.19284">
        <ele>145.597656</ele>
        <time>2013-12-08T11:04:17Z</time>
      </trkpt>
      <trkpt lat="47.88786" lon="-2.19207">
        <ele>145.398438</ele>
        <time>2013-12-08T11:05:00Z</time>
      </trkpt>
      <trkpt lat="47.8879" lon="-2.19192">
        <ele>146</ele>
        <time>2013-12-08T11:05:07Z</time>
      </trkpt>
      <trkpt lat="47.88799" lon="-2.19152">
        <ele>146.097656</ele>
        <time>2013-12-08T11:05:32Z</time>
      </trkpt>
      <trkpt lat="47.888" lon="-2.19137">
        <ele>145.898438</ele>
        <time>2013-12-08T11:05:41Z</time>
      </trkpt>
      <trkpt lat="47.88801" lon="-2.19123">
        <ele>145</ele>
        <time>2013-12-08T11:05:50Z</time>
      </trkpt>
      <trkpt lat="47.88801" lon="-2.19065">
        <ele>138.898438</ele>
        <time>2013-12-08T11:06:24Z</time>
      </trkpt>
      <trkpt lat="47.88799" lon="-2.19049">
        <ele>140.898438</ele>
        <time>2013-12-08T11:06:35Z</time>
      </trkpt>
      <trkpt lat="47.88801" lon="-2.19035">
        <ele>139.5</ele>
        <time>2013-12-08T11:06:43Z</time>
      </trkpt>
      <trkpt lat="47.88807" lon="-2.19024">
        <ele>138.398438</ele>
        <time>2013-12-08T11:06:52Z</time>
      </trkpt>
      <trkpt lat="47.88817" lon="-2.19016">
        <ele>137.597656</ele>
        <time>2013-12-08T11:07:02Z</time>
      </trkpt>
      <trkpt lat="47.88829" lon="-2.19008">
        <ele>137</ele>
        <time>2013-12-08T11:07:13Z</time>
      </trkpt>
      <trkpt lat="47.88839" lon="-2.19003">
        <ele>135.699219</ele>
        <time>2013-12-08T11:07:21Z</time>
      </trkpt>
      <trkpt lat="47.88887" lon="-2.18977">
        <ele>132.21875</ele>
        <time>2013-12-08T11:08:07Z</time>
      </trkpt>
      <trkpt lat="47.88896" lon="-2.18978">
        <ele>129.796875</ele>
        <time>2013-12-08T11:08:23Z</time>
      </trkpt>
      <trkpt lat="47.88915" lon="-2.1898">
        <ele>127.199219</ele>
        <time>2013-12-08T11:08:27Z</time>
      </trkpt>
      <trkpt lat="47.88925" lon="-2.18979">
        <ele>127.296875</ele>
        <time>2013-12-08T11:08:34Z</time>
      </trkpt>
      <trkpt lat="47.88933" lon="-2.18973">
        <ele>124.796875</ele>
        <time>2013-12-08T11:08:42Z</time>
      </trkpt>
      <trkpt lat="47.88941" lon="-2.18966">
        <ele>126</ele>
        <time>2013-12-08T11:08:50Z</time>
      </trkpt>
      <trkpt lat="47.88949" lon="-2.18958">
        <ele>126.5</ele>
        <time>2013-12-08T11:08:58Z</time>
      </trkpt>
      <trkpt lat="47.88958" lon="-2.18955">
        <ele>125.199219</ele>
        <time>2013-12-08T11:09:07Z</time>
      </trkpt>
      <trkpt lat="47.88967" lon="-2.18953">
        <ele>124.265625</ele>
        <time>2013-12-08T11:09:15Z</time>
      </trkpt>
      <trkpt lat="47.88976" lon="-2.18953">
        <ele>123.398438</ele>
        <time>2013-12-08T11:09:26Z</time>
      </trkpt>
      <trkpt lat="47.88986" lon="-2.18956">
        <ele>122.796875</ele>
        <time>2013-12-08T11:09:33Z</time>
      </trkpt>
      <trkpt lat="47.89004" lon="-2.1896">
        <ele>117.699219</ele>
        <time>2013-12-08T11:09:55Z</time>
      </trkpt>
      <trkpt lat="47.89077" lon="-2.18969">
        <ele>112.5</ele>
        <time>2013-12-08T11:10:51Z</time>
      </trkpt>
      <trkpt lat="47.89087" lon="-2.1897">
        <ele>113.699219</ele>
        <time>2013-12-08T11:10:58Z</time>
      </trkpt>
      <trkpt lat="47.89096" lon="-2.18969">
        <ele>111.398438</ele>
        <time>2013-12-08T11:11:06Z</time>
      </trkpt>
      <trkpt lat="47.89105" lon="-2.18966">
        <ele>109.199219</ele>
        <time>2013-12-08T11:11:15Z</time>
      </trkpt>
      <trkpt lat="47.89123" lon="-2.1896">
        <ele>109</ele>
        <time>2013-12-08T11:11:30Z</time>
      </trkpt>
      <trkpt lat="47.89132" lon="-2.18954">
        <ele>108.796875</ele>
        <time>2013-12-08T11:11:37Z</time>
      </trkpt>
      <trkpt lat="47.89139" lon="-2.18943">
        <ele>107.199219</ele>
        <time>2013-12-08T11:11:44Z</time>
      </trkpt>
      <trkpt lat="47.89145" lon="-2.18932">
        <ele>106</ele>
        <time>2013-12-08T11:11:51Z</time>
      </trkpt>
      <trkpt lat="47.89151" lon="-2.18921">
        <ele>106.097656</ele>
        <time>2013-12-08T11:11:58Z</time>
      </trkpt>
      <trkpt lat="47.89157" lon="-2.18911">
        <ele>103.597656</ele>
        <time>2013-12-08T11:12:06Z</time>
      </trkpt>
      <trkpt lat="47.89162" lon="-2.189">
        <ele>100.699219</ele>
        <time>2013-12-08T11:12:17Z</time>
      </trkpt>
      <trkpt lat="47.8917" lon="-2.18892">
        <ele>99.296875</ele>
        <time>2013-12-08T11:12:25Z</time>
      </trkpt>
      <trkpt lat="47.89216" lon="-2.18838">
        <ele>100.597656</ele>
        <time>2013-12-08T11:13:08Z</time>
      </trkpt>
      <trkpt lat="47.89224" lon="-2.18828">
        <ele>98</ele>
        <time>2013-12-08T11:13:15Z</time>
      </trkpt>
      <trkpt lat="47.89232" lon="-2.18819">
        <ele>96.097656</ele>
        <time>2013-12-08T11:13:22Z</time>
      </trkpt>
      <trkpt lat="47.89239" lon="-2.18808">
        <ele>93.398438</ele>
        <time>2013-12-08T11:13:29Z</time>
      </trkpt>
      <trkpt lat="47.89246" lon="-2.18798">
        <ele>92.699219</ele>
        <time>2013-12-08T11:13:37Z</time>
      </trkpt>
      <trkpt lat="47.8927" lon="-2.18771">
        <ele>90.398438</ele>
        <time>2013-12-08T11:13:58Z</time>
      </trkpt>
      <trkpt lat="47.89276" lon="-2.1876">
        <ele>89.199219</ele>
        <time>2013-12-08T11:14:05Z</time>
      </trkpt>
      <trkpt lat="47.89287" lon="-2.18738">
        <ele>84.097656</ele>
        <time>2013-12-08T11:14:24Z</time>
      </trkpt>
      <trkpt lat="47.89296" lon="-2.1873">
        <ele>82.097656</ele>
        <time>2013-12-08T11:14:34Z</time>
      </trkpt>
      <trkpt lat="47.89305" lon="-2.1873">
        <ele>77.5</ele>
        <time>2013-12-08T11:14:43Z</time>
      </trkpt>
      <trkpt lat="47.89314" lon="-2.18734">
        <ele>75.597656</ele>
        <time>2013-12-08T11:14:53Z</time>
      </trkpt>
      <trkpt lat="47.89323" lon="-2.18739">
        <ele>75</ele>
        <time>2013-12-08T11:15:00Z</time>
      </trkpt>
      <trkpt lat="47.89332" lon="-2.18741">
        <ele>74.199219</ele>
        <time>2013-12-08T11:15:07Z</time>
      </trkpt>
      <trkpt lat="47.89352" lon="-2.18748">
        <ele>74.097656</ele>
        <time>2013-12-08T11:15:23Z</time>
      </trkpt>
      <trkpt lat="47.8936" lon="-2.18753">
        <ele>72.097656</ele>
        <time>2013-12-08T11:15:30Z</time>
      </trkpt>
      <trkpt lat="47.89432" lon="-2.18794">
        <ele>62.5</ele>
        <time>2013-12-08T11:16:37Z</time>
      </trkpt>
      <trkpt lat="47.89439" lon="-2.18803">
        <ele>62.898438</ele>
        <time>2013-12-08T11:16:43Z</time>
      </trkpt>
      <trkpt lat="47.89444" lon="-2.18815">
        <ele>64.699219</ele>
        <time>2013-12-08T11:16:50Z</time>
      </trkpt>
      <trkpt lat="47.89447" lon="-2.18828">
        <ele>65.398438</ele>
        <time>2013-12-08T11:16:57Z</time>
      </trkpt>
      <trkpt lat="47.89451" lon="-2.1884">
        <ele>63.898438</ele>
        <time>2013-12-08T11:17:04Z</time>
      </trkpt>
      <trkpt lat="47.89455" lon="-2.18854">
        <ele>64.796875</ele>
        <time>2013-12-08T11:17:12Z</time>
      </trkpt>
      <trkpt lat="47.89461" lon="-2.18866">
        <ele>65.199219</ele>
        <time>2013-12-08T11:17:20Z</time>
      </trkpt>
      <trkpt lat="47.89467" lon="-2.18878">
        <ele>65.796875</ele>
        <time>2013-12-08T11:17:28Z</time>
      </trkpt>
      <trkpt lat="47.89471" lon="-2.18889">
        <ele>64.796875</ele>
        <time>2013-12-08T11:17:36Z</time>
      </trkpt>
      <trkpt lat="47.89478" lon="-2.189">
        <ele>65.398438</ele>
        <time>2013-12-08T11:17:44Z</time>
      </trkpt>
      <trkpt lat="47.89497" lon="-2.18932">
        <ele>65</ele>
        <time>2013-12-08T11:18:08Z</time>
      </trkpt>
      <trkpt lat="47.89502" lon="-2.18946">
        <ele>62.898438</ele>
        <time>2013-12-08T11:18:17Z</time>
      </trkpt>
      <trkpt lat="47.89512" lon="-2.18949">
        <ele>63.398438</ele>
        <time>2013-12-08T11:18:25Z</time>
      </trkpt>
      <trkpt lat="47.89521" lon="-2.18944">
        <ele>64.199219</ele>
        <time>2013-12-08T11:18:32Z</time>
      </trkpt>
      <trkpt lat="47.8953" lon="-2.18939">
        <ele>66.699219</ele>
        <time>2013-12-08T11:18:39Z</time>
      </trkpt>
      <trkpt lat="47.89538" lon="-2.18932">
        <ele>68.699219</ele>
        <time>2013-12-08T11:18:46Z</time>
      </trkpt>
      <trkpt lat="47.89594" lon="-2.18877">
        <ele>71.898438</ele>
        <time>2013-12-08T11:19:38Z</time>
      </trkpt>
      <trkpt lat="47.89602" lon="-2.18868">
        <ele>71.597656</ele>
        <time>2013-12-08T11:19:45Z</time>
      </trkpt>
      <trkpt lat="47.89608" lon="-2.18858">
        <ele>71.398438</ele>
        <time>2013-12-08T11:19:52Z</time>
      </trkpt>
      <trkpt lat="47.89614" lon="-2.18847">
        <ele>71.796875</ele>
        <time>2013-12-08T11:19:59Z</time>
      </trkpt>
      <trkpt lat="47.8963" lon="-2.18812">
        <ele>71.097656</ele>
        <time>2013-12-08T11:20:22Z</time>
      </trkpt>
      <trkpt lat="47.89645" lon="-2.18775">
        <ele>70.898438</ele>
        <time>2013-12-08T11:20:44Z</time>
      </trkpt>
      <trkpt lat="47.89651" lon="-2.18765">
        <ele>71.199219</ele>
        <time>2013-12-08T11:20:51Z</time>
      </trkpt>
      <trkpt lat="47.89659" lon="-2.18755">
        <ele>71.296875</ele>
        <time>2013-12-08T11:20:59Z</time>
      </trkpt>
      <trkpt lat="47.89688" lon="-2.1872">
        <ele>68.097656</ele>
        <time>2013-12-08T11:21:29Z</time>
      </trkpt>
      <trkpt lat="47.89694" lon="-2.18708">
        <ele>68.097656</ele>
        <time>2013-12-08T11:21:37Z</time>
      </trkpt>
      <trkpt lat="47.89703" lon="-2.18681">
        <ele>67.796875</ele>
        <time>2013-12-08T11:21:53Z</time>
      </trkpt>
      <trkpt lat="47.89726" lon="-2.18618">
        <ele>65.796875</ele>
        <time>2013-12-08T11:22:31Z</time>
      </trkpt>
      <trkpt lat="47.89735" lon="-2.18612">
        <ele>65.5</ele>
        <time>2013-12-08T11:22:39Z</time>
      </trkpt>
      <trkpt lat="47.89745" lon="-2.18613">
        <ele>64.796875</ele>
        <time>2013-12-08T11:22:47Z</time>
      </trkpt>
      <trkpt lat="47.89754" lon="-2.18615">
        <ele>64.296875</ele>
        <time>2013-12-08T11:22:54Z</time>
      </trkpt>
      <trkpt lat="47.89763" lon="-2.18618">
        <ele>64.398438</ele>
        <time>2013-12-08T11:23:01Z</time>
      </trkpt>
      <trkpt lat="47.89837" lon="-2.1865">
        <ele>61.199219</ele>
        <time>2013-12-08T11:24:02Z</time>
      </trkpt>
      <trkpt lat="47.89856" lon="-2.18661">
        <ele>60.199219</ele>
        <time>2013-12-08T11:24:18Z</time>
      </trkpt>
      <trkpt lat="47.89892" lon="-2.18683">
        <ele>59.199219</ele>
        <time>2013-12-08T11:24:46Z</time>
      </trkpt>
      <trkpt lat="47.89901" lon="-2.18687">
        <ele>58.097656</ele>
        <time>2013-12-08T11:24:53Z</time>
      </trkpt>
      <trkpt lat="47.89919" lon="-2.18694">
        <ele>57.296875</ele>
        <time>2013-12-08T11:25:07Z</time>
      </trkpt>
      <trkpt lat="47.89928" lon="-2.18696">
        <ele>58</ele>
        <time>2013-12-08T11:25:14Z</time>
      </trkpt>
      <trkpt lat="47.89946" lon="-2.18698">
        <ele>56.796875</ele>
        <time>2013-12-08T11:25:28Z</time>
      </trkpt>
      <trkpt lat="47.89956" lon="-2.18698">
        <ele>55.898438</ele>
        <time>2013-12-08T11:25:35Z</time>
      </trkpt>
      <trkpt lat="47.89966" lon="-2.18697">
        <ele>55.898438</ele>
        <time>2013-12-08T11:25:43Z</time>
      </trkpt>
      <trkpt lat="47.89976" lon="-2.18695">
        <ele>55.699219</ele>
        <time>2013-12-08T11:25:51Z</time>
      </trkpt>
      <trkpt lat="47.89986" lon="-2.18692">
        <ele>55.296875</ele>
        <time>2013-12-08T11:25:59Z</time>
      </trkpt>
      <trkpt lat="47.90085" lon="-2.18654">
        <ele>56.5</ele>
        <time>2013-12-08T11:27:19Z</time>
      </trkpt>
      <trkpt lat="47.90114" lon="-2.1865">
        <ele>55.5</ele>
        <time>2013-12-08T11:27:41Z</time>
      </trkpt>
      <trkpt lat="47.902" lon="-2.18641">
        <ele>56.097656</ele>
        <time>2013-12-08T11:28:49Z</time>
      </trkpt>
      <trkpt lat="47.9022" lon="-2.18643">
        <ele>56</ele>
        <time>2013-12-08T11:29:05Z</time>
      </trkpt>
      <trkpt lat="47.90248" lon="-2.18649">
        <ele>57.699219</ele>
        <time>2013-12-08T11:29:26Z</time>
      </trkpt>
      <trkpt lat="47.90475" lon="-2.18709">
        <ele>65.5</ele>
        <time>2013-12-08T11:32:36Z</time>
      </trkpt>
      <trkpt lat="47.90485" lon="-2.1871">
        <ele>65.296875</ele>
        <time>2013-12-08T11:32:45Z</time>
      </trkpt>
      <trkpt lat="47.90494" lon="-2.18709">
        <ele>64.097656</ele>
        <time>2013-12-08T11:32:53Z</time>
      </trkpt>
      <trkpt lat="47.90503" lon="-2.18707">
        <ele>64.5</ele>
        <time>2013-12-08T11:33:02Z</time>
      </trkpt>
      <trkpt lat="47.90512" lon="-2.18703">
        <ele>61.699219</ele>
        <time>2013-12-08T11:33:10Z</time>
      </trkpt>
      <trkpt lat="47.90522" lon="-2.18703">
        <ele>63.296875</ele>
        <time>2013-12-08T11:39:51Z</time>
      </trkpt>
      <trkpt lat="47.90531" lon="-2.18695">
        <ele>63.699219</ele>
        <time>2013-12-08T11:40:06Z</time>
      </trkpt>
      <trkpt lat="47.9054" lon="-2.1869">
        <ele>64</ele>
        <time>2013-12-08T11:40:14Z</time>
      </trkpt>
      <trkpt lat="47.90558" lon="-2.18682">
        <ele>64.398438</ele>
        <time>2013-12-08T11:40:29Z</time>
      </trkpt>
      <trkpt lat="47.90577" lon="-2.18675">
        <ele>65</ele>
        <time>2013-12-08T11:40:45Z</time>
      </trkpt>
      <trkpt lat="47.90586" lon="-2.18673">
        <ele>65.097656</ele>
        <time>2013-12-08T11:41:05Z</time>
      </trkpt>
      <trkpt lat="47.90596" lon="-2.18669">
        <ele>65</ele>
        <time>2013-12-08T11:41:12Z</time>
      </trkpt>
      <trkpt lat="47.90605" lon="-2.18665">
        <ele>65.097656</ele>
        <time>2013-12-08T11:41:19Z</time>
      </trkpt>
      <trkpt lat="47.90615" lon="-2.18663">
        <ele>64.199219</ele>
        <time>2013-12-08T11:41:26Z</time>
      </trkpt>
      <trkpt lat="47.90624" lon="-2.18667">
        <ele>63.597656</ele>
        <time>2013-12-08T11:41:35Z</time>
      </trkpt>
      <trkpt lat="47.90632" lon="-2.18674">
        <ele>62.5</ele>
        <time>2013-12-08T11:41:44Z</time>
      </trkpt>
      <trkpt lat="47.9064" lon="-2.18681">
        <ele>61.597656</ele>
        <time>2013-12-08T11:41:56Z</time>
      </trkpt>
      <trkpt lat="47.90649" lon="-2.18679">
        <ele>64.898438</ele>
        <time>2013-12-08T11:42:05Z</time>
      </trkpt>
      <trkpt lat="47.90656" lon="-2.18669">
        <ele>65.296875</ele>
        <time>2013-12-08T11:42:17Z</time>
      </trkpt>
      <trkpt lat="47.90662" lon="-2.18659">
        <ele>64.296875</ele>
        <time>2013-12-08T11:42:27Z</time>
      </trkpt>
      <trkpt lat="47.90676" lon="-2.18655">
        <ele>64.296875</ele>
        <time>2013-12-08T11:42:43Z</time>
      </trkpt>
      <trkpt lat="47.90686" lon="-2.18654">
        <ele>63.296875</ele>
        <time>2013-12-08T11:42:54Z</time>
      </trkpt>
      <trkpt lat="47.90698" lon="-2.18651">
        <ele>64.378906</ele>
        <time>2013-12-08T11:43:05Z</time>
      </trkpt>
      <trkpt lat="47.90707" lon="-2.18652">
        <ele>65.199219</ele>
        <time>2013-12-08T11:43:29Z</time>
      </trkpt>
      <trkpt lat="47.90716" lon="-2.18649">
        <ele>66.898438</ele>
        <time>2013-12-08T11:43:32Z</time>
      </trkpt>
      <trkpt lat="47.90716" lon="-2.18634">
        <ele>68.457031</ele>
        <time>2013-12-08T11:43:45Z</time>
      </trkpt>
      <trkpt lat="47.90714" lon="-2.18621">
        <ele>66.699219</ele>
        <time>2013-12-08T11:44:01Z</time>
      </trkpt>
      <trkpt lat="47.90712" lon="-2.18607">
        <ele>67.199219</ele>
        <time>2013-12-08T11:44:21Z</time>
      </trkpt>
      <trkpt lat="47.90708" lon="-2.18594">
        <ele>67.898438</ele>
        <time>2013-12-08T11:44:29Z</time>
      </trkpt>
      <trkpt lat="47.90705" lon="-2.1858">
        <ele>68.097656</ele>
        <time>2013-12-08T11:44:37Z</time>
      </trkpt>
      <trkpt lat="47.90701" lon="-2.18568">
        <ele>68.898438</ele>
        <time>2013-12-08T11:44:44Z</time>
      </trkpt>
      <trkpt lat="47.90692" lon="-2.18544">
        <ele>70.796875</ele>
        <time>2013-12-08T11:44:58Z</time>
      </trkpt>
      <trkpt lat="47.90691" lon="-2.18529">
        <ele>71.898438</ele>
        <time>2013-12-08T11:45:06Z</time>
      </trkpt>
      <trkpt lat="47.9069" lon="-2.18515">
        <ele>71.898438</ele>
        <time>2013-12-08T11:45:13Z</time>
      </trkpt>
      <trkpt lat="47.90691" lon="-2.185">
        <ele>72.097656</ele>
        <time>2013-12-08T11:45:23Z</time>
      </trkpt>
      <trkpt lat="47.90693" lon="-2.18487">
        <ele>70.597656</ele>
        <time>2013-12-08T11:45:30Z</time>
      </trkpt>
      <trkpt lat="47.90697" lon="-2.18474">
        <ele>69.199219</ele>
        <time>2013-12-08T11:45:37Z</time>
      </trkpt>
      <trkpt lat="47.90701" lon="-2.1846">
        <ele>68.398438</ele>
        <time>2013-12-08T11:45:45Z</time>
      </trkpt>
      <trkpt lat="47.90704" lon="-2.18446">
        <ele>68.898438</ele>
        <time>2013-12-08T11:45:53Z</time>
      </trkpt>
      <trkpt lat="47.90708" lon="-2.18433">
        <ele>67.410156</ele>
        <time>2013-12-08T11:46:02Z</time>
      </trkpt>
      <trkpt lat="47.90715" lon="-2.18424">
        <ele>67.5</ele>
        <time>2013-12-08T11:46:17Z</time>
      </trkpt>
      <trkpt lat="47.90706" lon="-2.18431">
        <ele>65.898438</ele>
        <time>2013-12-08T11:47:02Z</time>
      </trkpt>
      <trkpt lat="47.907" lon="-2.18442">
        <ele>66.199219</ele>
        <time>2013-12-08T11:47:11Z</time>
      </trkpt>
      <trkpt lat="47.90696" lon="-2.18455">
        <ele>68.296875</ele>
        <time>2013-12-08T11:47:19Z</time>
      </trkpt>
      <trkpt lat="47.90692" lon="-2.1847">
        <ele>68.5</ele>
        <time>2013-12-08T11:47:28Z</time>
      </trkpt>
      <trkpt lat="47.9069" lon="-2.18483">
        <ele>67.296875</ele>
        <time>2013-12-08T11:47:35Z</time>
      </trkpt>
      <trkpt lat="47.9069" lon="-2.18498">
        <ele>67.398438</ele>
        <time>2013-12-08T11:47:44Z</time>
      </trkpt>
      <trkpt lat="47.9069" lon="-2.18513">
        <ele>66.199219</ele>
        <time>2013-12-08T11:47:53Z</time>
      </trkpt>
      <trkpt lat="47.90692" lon="-2.18527">
        <ele>65.097656</ele>
        <time>2013-12-08T11:48:03Z</time>
      </trkpt>
      <trkpt lat="47.90695" lon="-2.1854">
        <ele>61.898438</ele>
        <time>2013-12-08T11:48:12Z</time>
      </trkpt>
      <trkpt lat="47.90701" lon="-2.18567">
        <ele>58.296875</ele>
        <time>2013-12-08T11:48:29Z</time>
      </trkpt>
      <trkpt lat="47.90702" lon="-2.18581">
        <ele>59</ele>
        <time>2013-12-08T11:48:35Z</time>
      </trkpt>
      <trkpt lat="47.90706" lon="-2.18609">
        <ele>58.597656</ele>
        <time>2013-12-08T11:48:52Z</time>
      </trkpt>
      <trkpt lat="47.90709" lon="-2.18623">
        <ele>60.78125</ele>
        <time>2013-12-08T11:48:58Z</time>
      </trkpt>
      <trkpt lat="47.90711" lon="-2.18636">
        <ele>61.097656</ele>
        <time>2013-12-08T11:49:09Z</time>
      </trkpt>
      <trkpt lat="47.90716" lon="-2.18665">
        <ele>60</ele>
        <time>2013-12-08T11:49:22Z</time>
      </trkpt>
      <trkpt lat="47.90725" lon="-2.18705">
        <ele>59.699219</ele>
        <time>2013-12-08T11:49:46Z</time>
      </trkpt>
      <trkpt lat="47.90727" lon="-2.18719">
        <ele>57.398438</ele>
        <time>2013-12-08T11:49:54Z</time>
      </trkpt>
      <trkpt lat="47.9073" lon="-2.18746">
        <ele>53</ele>
        <time>2013-12-08T11:50:08Z</time>
      </trkpt>
      <trkpt lat="47.90732" lon="-2.1876">
        <ele>52.597656</ele>
        <time>2013-12-08T11:50:15Z</time>
      </trkpt>
      <trkpt lat="47.90734" lon="-2.18773">
        <ele>53.296875</ele>
        <time>2013-12-08T11:50:22Z</time>
      </trkpt>
      <trkpt lat="47.90735" lon="-2.18789">
        <ele>54.398438</ele>
        <time>2013-12-08T11:50:29Z</time>
      </trkpt>
      <trkpt lat="47.90737" lon="-2.18802">
        <ele>55.796875</ele>
        <time>2013-12-08T11:50:36Z</time>
      </trkpt>
      <trkpt lat="47.90739" lon="-2.18816">
        <ele>54.398438</ele>
        <time>2013-12-08T11:50:43Z</time>
      </trkpt>
      <trkpt lat="47.90743" lon="-2.1883">
        <ele>51.597656</ele>
        <time>2013-12-08T11:50:51Z</time>
      </trkpt>
      <trkpt lat="47.90748" lon="-2.18842">
        <ele>48.597656</ele>
        <time>2013-12-08T11:51:00Z</time>
      </trkpt>
      <trkpt lat="47.90751" lon="-2.18856">
        <ele>48.5</ele>
        <time>2013-12-08T11:51:08Z</time>
      </trkpt>
      <trkpt lat="47.90754" lon="-2.18869">
        <ele>47.5</ele>
        <time>2013-12-08T11:51:15Z</time>
      </trkpt>
      <trkpt lat="47.90753" lon="-2.18884">
        <ele>47.398438</ele>
        <time>2013-12-08T11:51:23Z</time>
      </trkpt>
      <trkpt lat="47.90748" lon="-2.18897">
        <ele>47.5</ele>
        <time>2013-12-08T11:51:31Z</time>
      </trkpt>
      <trkpt lat="47.90741" lon="-2.18906">
        <ele>47</ele>
        <time>2013-12-08T11:51:39Z</time>
      </trkpt>
      <trkpt lat="47.90734" lon="-2.18916">
        <ele>45.5</ele>
        <time>2013-12-08T11:51:46Z</time>
      </trkpt>
      <trkpt lat="47.90731" lon="-2.18929">
        <ele>45.5</ele>
        <time>2013-12-08T11:51:55Z</time>
      </trkpt>
      <trkpt lat="47.9073" lon="-2.18945">
        <ele>43</ele>
        <time>2013-12-08T11:52:07Z</time>
      </trkpt>
      <trkpt lat="47.90733" lon="-2.18959">
        <ele>42.398438</ele>
        <time>2013-12-08T11:52:18Z</time>
      </trkpt>
      <trkpt lat="47.90739" lon="-2.18973">
        <ele>44.199219</ele>
        <time>2013-12-08T11:52:31Z</time>
      </trkpt>
      <trkpt lat="47.90742" lon="-2.18986">
        <ele>45.296875</ele>
        <time>2013-12-08T11:52:38Z</time>
      </trkpt>
      <trkpt lat="47.90745" lon="-2.19001">
        <ele>46</ele>
        <time>2013-12-08T11:52:45Z</time>
      </trkpt>
      <trkpt lat="47.90747" lon="-2.19014">
        <ele>48.199219</ele>
        <time>2013-12-08T11:52:51Z</time>
      </trkpt>
      <trkpt lat="47.90746" lon="-2.19029">
        <ele>47.898438</ele>
        <time>2013-12-08T11:52:59Z</time>
      </trkpt>
      <trkpt lat="47.90743" lon="-2.19058">
        <ele>48.699219</ele>
        <time>2013-12-08T11:53:15Z</time>
      </trkpt>
      <trkpt lat="47.9074" lon="-2.19071">
        <ele>48.75</ele>
        <time>2013-12-08T11:53:22Z</time>
      </trkpt>
      <trkpt lat="47.90737" lon="-2.19084">
        <ele>55.097656</ele>
        <time>2013-12-08T11:53:32Z</time>
      </trkpt>
      <trkpt lat="47.90746" lon="-2.19089">
        <ele>46.5</ele>
        <time>2013-12-08T11:53:47Z</time>
      </trkpt>
      <trkpt lat="47.90754" lon="-2.19096">
        <ele>41.097656</ele>
        <time>2013-12-08T11:53:58Z</time>
      </trkpt>
      <trkpt lat="47.90762" lon="-2.19105">
        <ele>36.148438</ele>
        <time>2013-12-08T11:54:08Z</time>
      </trkpt>
      <trkpt lat="47.90767" lon="-2.19116">
        <ele>35.296875</ele>
        <time>2013-12-08T11:54:19Z</time>
      </trkpt>
      <trkpt lat="47.90764" lon="-2.19129">
        <ele>37.199219</ele>
        <time>2013-12-08T11:54:27Z</time>
      </trkpt>
      <trkpt lat="47.90759" lon="-2.19141">
        <ele>38.597656</ele>
        <time>2013-12-08T11:54:33Z</time>
      </trkpt>
      <trkpt lat="47.90749" lon="-2.19163">
        <ele>40.199219</ele>
        <time>2013-12-08T11:54:47Z</time>
      </trkpt>
      <trkpt lat="47.90743" lon="-2.19174">
        <ele>41.597656</ele>
        <time>2013-12-08T11:54:54Z</time>
      </trkpt>
      <trkpt lat="47.90738" lon="-2.19184">
        <ele>41.199219</ele>
        <time>2013-12-08T11:55:01Z</time>
      </trkpt>
      <trkpt lat="47.9072" lon="-2.19217">
        <ele>33.679688</ele>
        <time>2013-12-08T11:56:04Z</time>
      </trkpt>
      <trkpt lat="47.90713" lon="-2.19226">
        <ele>36.296875</ele>
        <time>2013-12-08T11:56:16Z</time>
      </trkpt>
      <trkpt lat="47.90707" lon="-2.1924">
        <ele>38.199219</ele>
        <time>2013-12-08T11:56:38Z</time>
      </trkpt>
      <trkpt lat="47.90702" lon="-2.19251">
        <ele>43.199219</ele>
        <time>2013-12-08T11:56:46Z</time>
      </trkpt>
      <trkpt lat="47.90695" lon="-2.19261">
        <ele>45.296875</ele>
        <time>2013-12-08T11:57:02Z</time>
      </trkpt>
      <trkpt lat="47.90689" lon="-2.19272">
        <ele>44.898438</ele>
        <time>2013-12-08T11:57:12Z</time>
      </trkpt>
      <trkpt lat="47.90667" lon="-2.19319">
        <ele>43.097656</ele>
        <time>2013-12-08T11:57:43Z</time>
      </trkpt>
      <trkpt lat="47.90651" lon="-2.19355">
        <ele>49.199219</ele>
        <time>2013-12-08T11:58:07Z</time>
      </trkpt>
      <trkpt lat="47.90647" lon="-2.19368">
        <ele>49.796875</ele>
        <time>2013-12-08T11:58:16Z</time>
      </trkpt>
      <trkpt lat="47.90644" lon="-2.19381">
        <ele>49.796875</ele>
        <time>2013-12-08T11:58:23Z</time>
      </trkpt>
      <trkpt lat="47.90619" lon="-2.19489">
        <ele>53.699219</ele>
        <time>2013-12-08T11:59:15Z</time>
      </trkpt>
      <trkpt lat="47.90619" lon="-2.19504">
        <ele>52.796875</ele>
        <time>2013-12-08T11:59:23Z</time>
      </trkpt>
      <trkpt lat="47.90617" lon="-2.19519">
        <ele>52.597656</ele>
        <time>2013-12-08T11:59:30Z</time>
      </trkpt>
      <trkpt lat="47.90615" lon="-2.19532">
        <ele>52.796875</ele>
        <time>2013-12-08T11:59:36Z</time>
      </trkpt>
      <trkpt lat="47.90609" lon="-2.1956">
        <ele>52.597656</ele>
        <time>2013-12-08T11:59:54Z</time>
      </trkpt>
      <trkpt lat="47.90608" lon="-2.19575">
        <ele>47.597656</ele>
        <time>2013-12-08T12:00:02Z</time>
      </trkpt>
      <trkpt lat="47.90603" lon="-2.19646">
        <ele>43.699219</ele>
        <time>2013-12-08T12:00:40Z</time>
      </trkpt>
      <trkpt lat="47.90603" lon="-2.19661">
        <ele>43.199219</ele>
        <time>2013-12-08T12:00:47Z</time>
      </trkpt>
      <trkpt lat="47.90603" lon="-2.1969">
        <ele>41.398438</ele>
        <time>2013-12-08T12:01:00Z</time>
      </trkpt>
      <trkpt lat="47.906" lon="-2.19719">
        <ele>42.097656</ele>
        <time>2013-12-08T12:01:15Z</time>
      </trkpt>
      <trkpt lat="47.90601" lon="-2.19732">
        <ele>43.398438</ele>
        <time>2013-12-08T12:01:22Z</time>
      </trkpt>
      <trkpt lat="47.90602" lon="-2.19747">
        <ele>42.699219</ele>
        <time>2013-12-08T12:01:29Z</time>
      </trkpt>
      <trkpt lat="47.90604" lon="-2.19761">
        <ele>40.296875</ele>
        <time>2013-12-08T12:01:37Z</time>
      </trkpt>
      <trkpt lat="47.90603" lon="-2.19775">
        <ele>37.796875</ele>
        <time>2013-12-08T12:01:45Z</time>
      </trkpt>
      <trkpt lat="47.90605" lon="-2.19789">
        <ele>36.699219</ele>
        <time>2013-12-08T12:01:55Z</time>
      </trkpt>
      <trkpt lat="47.90614" lon="-2.19792">
        <ele>37.398438</ele>
        <time>2013-12-08T12:02:10Z</time>
      </trkpt>
      <trkpt lat="47.90623" lon="-2.19792">
        <ele>39.199219</ele>
        <time>2013-12-08T12:02:20Z</time>
      </trkpt>
      <trkpt lat="47.90617" lon="-2.19804">
        <ele>38.699219</ele>
        <time>2013-12-08T12:02:34Z</time>
      </trkpt>
      <trkpt lat="47.9061" lon="-2.19813">
        <ele>39.699219</ele>
        <time>2013-12-08T12:02:42Z</time>
      </trkpt>
      <trkpt lat="47.90606" lon="-2.19825">
        <ele>41.199219</ele>
        <time>2013-12-08T12:02:49Z</time>
      </trkpt>
      <trkpt lat="47.90605" lon="-2.19839">
        <ele>41.597656</ele>
        <time>2013-12-08T12:02:57Z</time>
      </trkpt>
      <trkpt lat="47.90602" lon="-2.19868">
        <ele>45.796875</ele>
        <time>2013-12-08T12:03:14Z</time>
      </trkpt>
      <trkpt lat="47.90602" lon="-2.19881">
        <ele>47.398438</ele>
        <time>2013-12-08T12:03:21Z</time>
      </trkpt>
      <trkpt lat="47.90601" lon="-2.19895">
        <ele>48.296875</ele>
        <time>2013-12-08T12:03:28Z</time>
      </trkpt>
      <trkpt lat="47.90598" lon="-2.19909">
        <ele>47.5</ele>
        <time>2013-12-08T12:03:35Z</time>
      </trkpt>
      <trkpt lat="47.9059" lon="-2.19949">
        <ele>43.796875</ele>
        <time>2013-12-08T12:03:59Z</time>
      </trkpt>
      <trkpt lat="47.90587" lon="-2.19962">
        <ele>44</ele>
        <time>2013-12-08T12:04:07Z</time>
      </trkpt>
      <trkpt lat="47.90585" lon="-2.19977">
        <ele>45.699219</ele>
        <time>2013-12-08T12:04:15Z</time>
      </trkpt>
      <trkpt lat="47.90584" lon="-2.19991">
        <ele>57.898438</ele>
        <time>2013-12-08T12:04:25Z</time>
      </trkpt>
      <trkpt lat="47.90595" lon="-2.20017">
        <ele>51.097656</ele>
        <time>2013-12-08T12:05:36Z</time>
      </trkpt>
      <trkpt lat="47.90587" lon="-2.20024">
        <ele>46.296875</ele>
        <time>2013-12-08T12:05:44Z</time>
      </trkpt>
      <trkpt lat="47.90579" lon="-2.20032">
        <ele>43.5</ele>
        <time>2013-12-08T12:05:52Z</time>
      </trkpt>
      <trkpt lat="47.90571" lon="-2.20041">
        <ele>42.398438</ele>
        <time>2013-12-08T12:05:59Z</time>
      </trkpt>
      <trkpt lat="47.90565" lon="-2.20051">
        <ele>41.296875</ele>
        <time>2013-12-08T12:06:06Z</time>
      </trkpt>
      <trkpt lat="47.90558" lon="-2.20061">
        <ele>43.867188</ele>
        <time>2013-12-08T12:06:14Z</time>
      </trkpt>
      <trkpt lat="47.90552" lon="-2.20071">
        <ele>50.296875</ele>
        <time>2013-12-08T12:06:37Z</time>
      </trkpt>
      <trkpt lat="47.90545" lon="-2.20082">
        <ele>46.898438</ele>
        <time>2013-12-08T12:07:36Z</time>
      </trkpt>
      <trkpt lat="47.90534" lon="-2.20102">
        <ele>41.699219</ele>
        <time>2013-12-08T12:07:53Z</time>
      </trkpt>
      <trkpt lat="47.90526" lon="-2.20112">
        <ele>39.898438</ele>
        <time>2013-12-08T12:08:01Z</time>
      </trkpt>
      <trkpt lat="47.90518" lon="-2.20119">
        <ele>40.699219</ele>
        <time>2013-12-08T12:08:09Z</time>
      </trkpt>
      <trkpt lat="47.90512" lon="-2.20129">
        <ele>41.898438</ele>
        <time>2013-12-08T12:08:16Z</time>
      </trkpt>
      <trkpt lat="47.90484" lon="-2.20175">
        <ele>38.597656</ele>
        <time>2013-12-08T12:09:06Z</time>
      </trkpt>
      <trkpt lat="47.90478" lon="-2.20187">
        <ele>40.796875</ele>
        <time>2013-12-08T12:09:15Z</time>
      </trkpt>
      <trkpt lat="47.90471" lon="-2.20198">
        <ele>42.199219</ele>
        <time>2013-12-08T12:09:22Z</time>
      </trkpt>
      <trkpt lat="47.90464" lon="-2.20207">
        <ele>43.199219</ele>
        <time>2013-12-08T12:09:29Z</time>
      </trkpt>
      <trkpt lat="47.90459" lon="-2.20218">
        <ele>43.847656</ele>
        <time>2013-12-08T12:09:36Z</time>
      </trkpt>
      <trkpt lat="47.90455" lon="-2.20231">
        <ele>39.726563</ele>
        <time>2013-12-08T12:09:53Z</time>
      </trkpt>
      <trkpt lat="47.90461" lon="-2.20219">
        <ele>37.457031</ele>
        <time>2013-12-08T12:11:55Z</time>
      </trkpt>
      <trkpt lat="47.90479" lon="-2.20187">
        <ele>37.648438</ele>
        <time>2013-12-08T12:12:22Z</time>
      </trkpt>
      <trkpt lat="47.90485" lon="-2.20177">
        <ele>41.1875</ele>
        <time>2013-12-08T12:12:31Z</time>
      </trkpt>
      <trkpt lat="47.90479" lon="-2.20188">
        <ele>42</ele>
        <time>2013-12-08T12:12:49Z</time>
      </trkpt>
      <trkpt lat="47.90473" lon="-2.20198">
        <ele>41.488281</ele>
        <time>2013-12-08T12:12:58Z</time>
      </trkpt>
      <trkpt lat="47.90461" lon="-2.20221">
        <ele>37.839844</ele>
        <time>2013-12-08T12:13:15Z</time>
      </trkpt>
      <trkpt lat="47.90459" lon="-2.20235">
        <ele>37.269531</ele>
        <time>2013-12-08T12:13:45Z</time>
      </trkpt>
      <trkpt lat="47.90467" lon="-2.20228">
        <ele>36.417969</ele>
        <time>2013-12-08T12:15:47Z</time>
      </trkpt>
      <trkpt lat="47.90467" lon="-2.20214">
        <ele>40.546875</ele>
        <time>2013-12-08T12:16:12Z</time>
      </trkpt>
      <trkpt lat="47.90459" lon="-2.20221">
        <ele>59.636719</ele>
        <time>2013-12-08T12:16:34Z</time>
      </trkpt>
      <trkpt lat="47.90457" lon="-2.20234">
        <ele>38.738281</ele>
        <time>2013-12-08T12:17:25Z</time>
      </trkpt>
      <trkpt lat="47.90461" lon="-2.2022">
        <ele>53.679688</ele>
        <time>2013-12-08T12:17:58Z</time>
      </trkpt>
      <trkpt lat="47.90463" lon="-2.20234">
        <ele>38.808594</ele>
        <time>2013-12-08T12:19:45Z</time>
      </trkpt>
      <trkpt lat="47.90461" lon="-2.2022">
        <ele>48.929688</ele>
        <time>2013-12-08T12:21:18Z</time>
      </trkpt>
      <trkpt lat="47.90469" lon="-2.20227">
        <ele>60.679688</ele>
        <time>2013-12-08T12:27:57Z</time>
      </trkpt>
      <trkpt lat="47.90469" lon="-2.20213">
        <ele>55.65625</ele>
        <time>2013-12-08T12:28:28Z</time>
      </trkpt>
      <trkpt lat="47.90461" lon="-2.20208">
        <ele>53.199219</ele>
        <time>2013-12-08T12:30:19Z</time>
      </trkpt>
      <trkpt lat="47.90465" lon="-2.20223">
        <ele>54.257813</ele>
        <time>2013-12-08T12:30:39Z</time>
      </trkpt>
      <trkpt lat="47.90468" lon="-2.20235">
        <ele>72.839844</ele>
        <time>2013-12-08T12:30:49Z</time>
      </trkpt>
      <trkpt lat="47.90459" lon="-2.20238">
        <ele>51.007813</ele>
        <time>2013-12-08T12:32:27Z</time>
      </trkpt>
      <trkpt lat="47.9046" lon="-2.20224">
        <ele>50.519531</ele>
        <time>2013-12-08T12:33:43Z</time>
      </trkpt>
      <trkpt lat="47.90466" lon="-2.20234">
        <ele>50.726563</ele>
        <time>2013-12-08T12:38:16Z</time>
      </trkpt>
      <trkpt lat="47.90464" lon="-2.2022">
        <ele>47.859375</ele>
        <time>2013-12-08T12:39:55Z</time>
      </trkpt>
      <trkpt lat="47.90458" lon="-2.2023">
        <ele>51.167969</ele>
        <time>2013-12-08T12:41:26Z</time>
      </trkpt>
      <trkpt lat="47.90452" lon="-2.20219">
        <ele>44.878906</ele>
        <time>2013-12-08T12:41:45Z</time>
      </trkpt>
      <trkpt lat="47.90457" lon="-2.20231">
        <ele>31.398438</ele>
        <time>2013-12-08T12:42:27Z</time>
      </trkpt>
      <trkpt lat="47.90455" lon="-2.20244">
        <ele>30.597656</ele>
        <time>2013-12-08T12:47:29Z</time>
      </trkpt>
      <trkpt lat="47.9045" lon="-2.20257">
        <ele>31.699219</ele>
        <time>2013-12-08T12:47:39Z</time>
      </trkpt>
      <trkpt lat="47.90444" lon="-2.20268">
        <ele>34.597656</ele>
        <time>2013-12-08T12:47:47Z</time>
      </trkpt>
      <trkpt lat="47.90438" lon="-2.20279">
        <ele>38.796875</ele>
        <time>2013-12-08T12:47:55Z</time>
      </trkpt>
      <trkpt lat="47.90432" lon="-2.20292">
        <ele>40.097656</ele>
        <time>2013-12-08T12:48:07Z</time>
      </trkpt>
      <trkpt lat="47.90428" lon="-2.20305">
        <ele>39.699219</ele>
        <time>2013-12-08T12:48:15Z</time>
      </trkpt>
      <trkpt lat="47.90412" lon="-2.20356">
        <ele>37.699219</ele>
        <time>2013-12-08T12:48:47Z</time>
      </trkpt>
      <trkpt lat="47.90402" lon="-2.20397">
        <ele>35.398438</ele>
        <time>2013-12-08T12:49:09Z</time>
      </trkpt>
      <trkpt lat="47.90397" lon="-2.20426">
        <ele>35.699219</ele>
        <time>2013-12-08T12:49:25Z</time>
      </trkpt>
      <trkpt lat="47.90393" lon="-2.20454">
        <ele>39.199219</ele>
        <time>2013-12-08T12:49:41Z</time>
      </trkpt>
      <trkpt lat="47.90392" lon="-2.20468">
        <ele>39.898438</ele>
        <time>2013-12-08T12:49:50Z</time>
      </trkpt>
      <trkpt lat="47.90387" lon="-2.20567">
        <ele>37.296875</ele>
        <time>2013-12-08T12:50:46Z</time>
      </trkpt>
      <trkpt lat="47.90385" lon="-2.20581">
        <ele>37.296875</ele>
        <time>2013-12-08T12:50:53Z</time>
      </trkpt>
      <trkpt lat="47.90385" lon="-2.20596">
        <ele>38.097656</ele>
        <time>2013-12-08T12:51:01Z</time>
      </trkpt>
      <trkpt lat="47.90386" lon="-2.20626">
        <ele>40.296875</ele>
        <time>2013-12-08T12:51:16Z</time>
      </trkpt>
      <trkpt lat="47.90388" lon="-2.20641">
        <ele>40.898438</ele>
        <time>2013-12-08T12:51:23Z</time>
      </trkpt>
      <trkpt lat="47.90396" lon="-2.20754">
        <ele>44</ele>
        <time>2013-12-08T12:52:34Z</time>
      </trkpt>
      <trkpt lat="47.90398" lon="-2.20768">
        <ele>42.796875</ele>
        <time>2013-12-08T12:52:41Z</time>
      </trkpt>
      <trkpt lat="47.90404" lon="-2.20795">
        <ele>44.898438</ele>
        <time>2013-12-08T12:52:58Z</time>
      </trkpt>
      <trkpt lat="47.90405" lon="-2.20809">
        <ele>45</ele>
        <time>2013-12-08T12:53:05Z</time>
      </trkpt>
      <trkpt lat="47.90413" lon="-2.20895">
        <ele>44.597656</ele>
        <time>2013-12-08T12:53:54Z</time>
      </trkpt>
      <trkpt lat="47.90415" lon="-2.20909">
        <ele>43.796875</ele>
        <time>2013-12-08T12:54:02Z</time>
      </trkpt>
      <trkpt lat="47.90418" lon="-2.20922">
        <ele>42.796875</ele>
        <time>2013-12-08T12:54:10Z</time>
      </trkpt>
      <trkpt lat="47.90421" lon="-2.20936">
        <ele>42.796875</ele>
        <time>2013-12-08T12:54:18Z</time>
      </trkpt>
      <trkpt lat="47.90422" lon="-2.2095">
        <ele>42.796875</ele>
        <time>2013-12-08T12:54:25Z</time>
      </trkpt>
      <trkpt lat="47.90425" lon="-2.20994">
        <ele>44</ele>
        <time>2013-12-08T12:54:47Z</time>
      </trkpt>
      <trkpt lat="47.90431" lon="-2.21034">
        <ele>42.199219</ele>
        <time>2013-12-08T12:55:09Z</time>
      </trkpt>
      <trkpt lat="47.90431" lon="-2.21048">
        <ele>43.296875</ele>
        <time>2013-12-08T12:55:17Z</time>
      </trkpt>
      <trkpt lat="47.90432" lon="-2.21063">
        <ele>43.898438</ele>
        <time>2013-12-08T12:55:24Z</time>
      </trkpt>
      <trkpt lat="47.90434" lon="-2.21077">
        <ele>43.898438</ele>
        <time>2013-12-08T12:55:31Z</time>
      </trkpt>
      <trkpt lat="47.90436" lon="-2.21092">
        <ele>44</ele>
        <time>2013-12-08T12:55:38Z</time>
      </trkpt>
      <trkpt lat="47.90439" lon="-2.21119">
        <ele>43.699219</ele>
        <time>2013-12-08T12:55:51Z</time>
      </trkpt>
      <trkpt lat="47.90437" lon="-2.21132">
        <ele>44.5</ele>
        <time>2013-12-08T12:55:58Z</time>
      </trkpt>
      <trkpt lat="47.90437" lon="-2.21147">
        <ele>45.199219</ele>
        <time>2013-12-08T12:56:06Z</time>
      </trkpt>
      <trkpt lat="47.90437" lon="-2.21162">
        <ele>41.296875</ele>
        <time>2013-12-08T12:56:16Z</time>
      </trkpt>
      <trkpt lat="47.9044" lon="-2.21175">
        <ele>40.699219</ele>
        <time>2013-12-08T12:56:27Z</time>
      </trkpt>
      <trkpt lat="47.90441" lon="-2.21189">
        <ele>39.398438</ele>
        <time>2013-12-08T12:56:36Z</time>
      </trkpt>
      <trkpt lat="47.90443" lon="-2.21204">
        <ele>39.199219</ele>
        <time>2013-12-08T12:56:45Z</time>
      </trkpt>
      <trkpt lat="47.90443" lon="-2.21218">
        <ele>40.199219</ele>
        <time>2013-12-08T12:56:53Z</time>
      </trkpt>
      <trkpt lat="47.90441" lon="-2.21233">
        <ele>41.5</ele>
        <time>2013-12-08T12:57:00Z</time>
      </trkpt>
      <trkpt lat="47.9044" lon="-2.21248">
        <ele>41.898438</ele>
        <time>2013-12-08T12:57:07Z</time>
      </trkpt>
      <trkpt lat="47.9044" lon="-2.21262">
        <ele>43.097656</ele>
        <time>2013-12-08T12:57:15Z</time>
      </trkpt>
      <trkpt lat="47.90438" lon="-2.21276">
        <ele>44.296875</ele>
        <time>2013-12-08T12:57:21Z</time>
      </trkpt>
      <trkpt lat="47.90437" lon="-2.2129">
        <ele>46</ele>
        <time>2013-12-08T12:57:28Z</time>
      </trkpt>
      <trkpt lat="47.90435" lon="-2.21304">
        <ele>47.296875</ele>
        <time>2013-12-08T12:57:36Z</time>
      </trkpt>
      <trkpt lat="47.90435" lon="-2.21318">
        <ele>50</ele>
        <time>2013-12-08T12:57:45Z</time>
      </trkpt>
      <trkpt lat="47.90435" lon="-2.21333">
        <ele>49.597656</ele>
        <time>2013-12-08T12:57:52Z</time>
      </trkpt>
      <trkpt lat="47.90433" lon="-2.21348">
        <ele>49.699219</ele>
        <time>2013-12-08T12:57:59Z</time>
      </trkpt>
      <trkpt lat="47.90433" lon="-2.21363">
        <ele>49</ele>
        <time>2013-12-08T12:58:06Z</time>
      </trkpt>
      <trkpt lat="47.90433" lon="-2.21434">
        <ele>46.5</ele>
        <time>2013-12-08T12:58:43Z</time>
      </trkpt>
      <trkpt lat="47.9043" lon="-2.2152">
        <ele>50.699219</ele>
        <time>2013-12-08T12:59:26Z</time>
      </trkpt>
      <trkpt lat="47.90429" lon="-2.21636">
        <ele>47.796875</ele>
        <time>2013-12-08T13:00:21Z</time>
      </trkpt>
      <trkpt lat="47.9043" lon="-2.21678">
        <ele>43.898438</ele>
        <time>2013-12-08T13:00:43Z</time>
      </trkpt>
      <trkpt lat="47.90431" lon="-2.21691">
        <ele>45.382813</ele>
        <time>2013-12-08T13:00:50Z</time>
      </trkpt>
      <trkpt lat="47.90429" lon="-2.21704">
        <ele>50.898438</ele>
        <time>2013-12-08T13:02:06Z</time>
      </trkpt>
      <trkpt lat="47.90435" lon="-2.21718">
        <ele>50.398438</ele>
        <time>2013-12-08T13:04:06Z</time>
      </trkpt>
      <trkpt lat="47.90433" lon="-2.21733">
        <ele>48.296875</ele>
        <time>2013-12-08T13:04:17Z</time>
      </trkpt>
      <trkpt lat="47.90434" lon="-2.21746">
        <ele>45</ele>
        <time>2013-12-08T13:04:27Z</time>
      </trkpt>
      <trkpt lat="47.90436" lon="-2.2176">
        <ele>44</ele>
        <time>2013-12-08T13:04:36Z</time>
      </trkpt>
      <trkpt lat="47.90439" lon="-2.21773">
        <ele>44.597656</ele>
        <time>2013-12-08T13:04:43Z</time>
      </trkpt>
      <trkpt lat="47.90439" lon="-2.21788">
        <ele>44.5</ele>
        <time>2013-12-08T13:04:49Z</time>
      </trkpt>
      <trkpt lat="47.9044" lon="-2.21802">
        <ele>43.398438</ele>
        <time>2013-12-08T13:04:57Z</time>
      </trkpt>
      <trkpt lat="47.90443" lon="-2.21831">
        <ele>37.398438</ele>
        <time>2013-12-08T13:05:13Z</time>
      </trkpt>
      <trkpt lat="47.90447" lon="-2.21843">
        <ele>34.398438</ele>
        <time>2013-12-08T13:05:20Z</time>
      </trkpt>
      <trkpt lat="47.9045" lon="-2.21856">
        <ele>31.199219</ele>
        <time>2013-12-08T13:05:26Z</time>
      </trkpt>
      <trkpt lat="47.90453" lon="-2.2187">
        <ele>31.796875</ele>
        <time>2013-12-08T13:05:33Z</time>
      </trkpt>
      <trkpt lat="47.90458" lon="-2.21897">
        <ele>34.097656</ele>
        <time>2013-12-08T13:05:45Z</time>
      </trkpt>
      <trkpt lat="47.90459" lon="-2.21911">
        <ele>32.296875</ele>
        <time>2013-12-08T13:05:51Z</time>
      </trkpt>
      <trkpt lat="47.90462" lon="-2.21924">
        <ele>32.5</ele>
        <time>2013-12-08T13:05:58Z</time>
      </trkpt>
      <trkpt lat="47.90463" lon="-2.2194">
        <ele>35.5</ele>
        <time>2013-12-08T13:06:05Z</time>
      </trkpt>
      <trkpt lat="47.90463" lon="-2.21954">
        <ele>39</ele>
        <time>2013-12-08T13:06:11Z</time>
      </trkpt>
      <trkpt lat="47.90462" lon="-2.21984">
        <ele>45.796875</ele>
        <time>2013-12-08T13:06:24Z</time>
      </trkpt>
      <trkpt lat="47.90463" lon="-2.21998">
        <ele>46.5</ele>
        <time>2013-12-08T13:06:31Z</time>
      </trkpt>
      <trkpt lat="47.90468" lon="-2.2204">
        <ele>48.898438</ele>
        <time>2013-12-08T13:06:50Z</time>
      </trkpt>
      <trkpt lat="47.90469" lon="-2.22055">
        <ele>49.398438</ele>
        <time>2013-12-08T13:06:57Z</time>
      </trkpt>
      <trkpt lat="47.9047" lon="-2.22069">
        <ele>47.699219</ele>
        <time>2013-12-08T13:07:03Z</time>
      </trkpt>
      <trkpt lat="47.90472" lon="-2.22084">
        <ele>44.796875</ele>
        <time>2013-12-08T13:07:10Z</time>
      </trkpt>
      <trkpt lat="47.90475" lon="-2.22097">
        <ele>41.597656</ele>
        <time>2013-12-08T13:07:17Z</time>
      </trkpt>
      <trkpt lat="47.90476" lon="-2.22112">
        <ele>41.097656</ele>
        <time>2013-12-08T13:07:24Z</time>
      </trkpt>
      <trkpt lat="47.90477" lon="-2.22126">
        <ele>42.296875</ele>
        <time>2013-12-08T13:07:31Z</time>
      </trkpt>
      <trkpt lat="47.90476" lon="-2.2214">
        <ele>44.5</ele>
        <time>2013-12-08T13:07:38Z</time>
      </trkpt>
      <trkpt lat="47.90474" lon="-2.22154">
        <ele>45.898438</ele>
        <time>2013-12-08T13:07:45Z</time>
      </trkpt>
      <trkpt lat="47.90475" lon="-2.22169">
        <ele>46.699219</ele>
        <time>2013-12-08T13:07:53Z</time>
      </trkpt>
      <trkpt lat="47.90476" lon="-2.22198">
        <ele>44.5</ele>
        <time>2013-12-08T13:08:08Z</time>
      </trkpt>
      <trkpt lat="47.90475" lon="-2.22225">
        <ele>37.597656</ele>
        <time>2013-12-08T13:08:22Z</time>
      </trkpt>
      <trkpt lat="47.90474" lon="-2.22239">
        <ele>32</ele>
        <time>2013-12-08T13:08:29Z</time>
      </trkpt>
      <trkpt lat="47.90474" lon="-2.22254">
        <ele>25.199219</ele>
        <time>2013-12-08T13:08:37Z</time>
      </trkpt>
      <trkpt lat="47.90473" lon="-2.22268">
        <ele>23.898438</ele>
        <time>2013-12-08T13:08:44Z</time>
      </trkpt>
      <trkpt lat="47.9047" lon="-2.22281">
        <ele>24.597656</ele>
        <time>2013-12-08T13:08:50Z</time>
      </trkpt>
      <trkpt lat="47.90465" lon="-2.22308">
        <ele>24.5</ele>
        <time>2013-12-08T13:09:02Z</time>
      </trkpt>
      <trkpt lat="47.90454" lon="-2.22362">
        <ele>23.097656</ele>
        <time>2013-12-08T13:09:32Z</time>
      </trkpt>
      <trkpt lat="47.9045" lon="-2.22376">
        <ele>23.199219</ele>
        <time>2013-12-08T13:09:39Z</time>
      </trkpt>
      <trkpt lat="47.90446" lon="-2.22391">
        <ele>22.796875</ele>
        <time>2013-12-08T13:09:46Z</time>
      </trkpt>
      <trkpt lat="47.90441" lon="-2.22404">
        <ele>21.898438</ele>
        <time>2013-12-08T13:09:53Z</time>
      </trkpt>
      <trkpt lat="47.90433" lon="-2.22429">
        <ele>23.296875</ele>
        <time>2013-12-08T13:10:07Z</time>
      </trkpt>
      <trkpt lat="47.90423" lon="-2.22456">
        <ele>18.699219</ele>
        <time>2013-12-08T13:10:22Z</time>
      </trkpt>
      <trkpt lat="47.90418" lon="-2.22467">
        <ele>25.320313</ele>
        <time>2013-12-08T13:10:29Z</time>
      </trkpt>
      <trkpt lat="47.90411" lon="-2.22474">
        <ele>29.296875</ele>
        <time>2013-12-08T13:10:57Z</time>
      </trkpt>
      <trkpt lat="47.90402" lon="-2.22471">
        <ele>36.398438</ele>
        <time>2013-12-08T13:11:09Z</time>
      </trkpt>
      <trkpt lat="47.90402" lon="-2.22485">
        <ele>36</ele>
        <time>2013-12-08T13:11:47Z</time>
      </trkpt>
      <trkpt lat="47.90399" lon="-2.22498">
        <ele>32.097656</ele>
        <time>2013-12-08T13:11:57Z</time>
      </trkpt>
      <trkpt lat="47.90392" lon="-2.22524">
        <ele>24.398438</ele>
        <time>2013-12-08T13:12:20Z</time>
      </trkpt>
      <trkpt lat="47.90388" lon="-2.22537">
        <ele>22.097656</ele>
        <time>2013-12-08T13:12:26Z</time>
      </trkpt>
      <trkpt lat="47.90365" lon="-2.22598">
        <ele>13.199219</ele>
        <time>2013-12-08T13:13:02Z</time>
      </trkpt>
      <trkpt lat="47.90329" lon="-2.22683">
        <ele>18.898438</ele>
        <time>2013-12-08T13:13:48Z</time>
      </trkpt>
      <trkpt lat="47.90322" lon="-2.22694">
        <ele>21.296875</ele>
        <time>2013-12-08T13:13:54Z</time>
      </trkpt>
      <trkpt lat="47.90318" lon="-2.22706">
        <ele>23.296875</ele>
        <time>2013-12-08T13:13:59Z</time>
      </trkpt>
      <trkpt lat="47.90314" lon="-2.22719">
        <ele>25.398438</ele>
        <time>2013-12-08T13:14:05Z</time>
      </trkpt>
      <trkpt lat="47.9031" lon="-2.22733">
        <ele>25.296875</ele>
        <time>2013-12-08T13:14:13Z</time>
      </trkpt>
      <trkpt lat="47.90303" lon="-2.2276">
        <ele>25.398438</ele>
        <time>2013-12-08T13:14:29Z</time>
      </trkpt>
      <trkpt lat="47.90291" lon="-2.22815">
        <ele>23.699219</ele>
        <time>2013-12-08T13:14:58Z</time>
      </trkpt>
      <trkpt lat="47.9029" lon="-2.22828">
        <ele>20.898438</ele>
        <time>2013-12-08T13:15:05Z</time>
      </trkpt>
      <trkpt lat="47.90286" lon="-2.22871">
        <ele>22</ele>
        <time>2013-12-08T13:15:27Z</time>
      </trkpt>
      <trkpt lat="47.90282" lon="-2.229">
        <ele>27</ele>
        <time>2013-12-08T13:15:40Z</time>
      </trkpt>
      <trkpt lat="47.90273" lon="-2.2297">
        <ele>39.296875</ele>
        <time>2013-12-08T13:16:12Z</time>
      </trkpt>
      <trkpt lat="47.9027" lon="-2.23026">
        <ele>47.898438</ele>
        <time>2013-12-08T13:16:42Z</time>
      </trkpt>
      <trkpt lat="47.90271" lon="-2.23041">
        <ele>49.296875</ele>
        <time>2013-12-08T13:16:49Z</time>
      </trkpt>
      <trkpt lat="47.90273" lon="-2.23085">
        <ele>53.699219</ele>
        <time>2013-12-08T13:17:12Z</time>
      </trkpt>
      <trkpt lat="47.90274" lon="-2.231">
        <ele>56.5</ele>
        <time>2013-12-08T13:17:20Z</time>
      </trkpt>
      <trkpt lat="47.90275" lon="-2.23114">
        <ele>56.5</ele>
        <time>2013-12-08T13:17:27Z</time>
      </trkpt>
      <trkpt lat="47.90276" lon="-2.23127">
        <ele>54.199219</ele>
        <time>2013-12-08T13:17:34Z</time>
      </trkpt>
      <trkpt lat="47.90281" lon="-2.23155">
        <ele>51.296875</ele>
        <time>2013-12-08T13:17:51Z</time>
      </trkpt>
      <trkpt lat="47.90284" lon="-2.2317">
        <ele>50.199219</ele>
        <time>2013-12-08T13:17:59Z</time>
      </trkpt>
      <trkpt lat="47.90286" lon="-2.23184">
        <ele>50.199219</ele>
        <time>2013-12-08T13:18:06Z</time>
      </trkpt>
      <trkpt lat="47.90287" lon="-2.23197">
        <ele>53</ele>
        <time>2013-12-08T13:18:13Z</time>
      </trkpt>
      <trkpt lat="47.90289" lon="-2.23226">
        <ele>53.296875</ele>
        <time>2013-12-08T13:18:27Z</time>
      </trkpt>
      <trkpt lat="47.90292" lon="-2.2324">
        <ele>51.5</ele>
        <time>2013-12-08T13:18:34Z</time>
      </trkpt>
      <trkpt lat="47.90304" lon="-2.2328">
        <ele>51.398438</ele>
        <time>2013-12-08T13:18:56Z</time>
      </trkpt>
      <trkpt lat="47.90307" lon="-2.23295">
        <ele>50.699219</ele>
        <time>2013-12-08T13:19:03Z</time>
      </trkpt>
      <trkpt lat="47.90308" lon="-2.2331">
        <ele>49.898438</ele>
        <time>2013-12-08T13:19:09Z</time>
      </trkpt>
      <trkpt lat="47.90311" lon="-2.23323">
        <ele>49.5</ele>
        <time>2013-12-08T13:19:16Z</time>
      </trkpt>
      <trkpt lat="47.90323" lon="-2.23374">
        <ele>49.898438</ele>
        <time>2013-12-08T13:19:47Z</time>
      </trkpt>
      <trkpt lat="47.90335" lon="-2.23414">
        <ele>42.199219</ele>
        <time>2013-12-08T13:20:10Z</time>
      </trkpt>
      <trkpt lat="47.9034" lon="-2.23425">
        <ele>42</ele>
        <time>2013-12-08T13:20:17Z</time>
      </trkpt>
      <trkpt lat="47.90344" lon="-2.23439">
        <ele>43.097656</ele>
        <time>2013-12-08T13:20:25Z</time>
      </trkpt>
      <trkpt lat="47.90346" lon="-2.23454">
        <ele>46.199219</ele>
        <time>2013-12-08T13:20:32Z</time>
      </trkpt>
      <trkpt lat="47.90353" lon="-2.23497">
        <ele>49.5</ele>
        <time>2013-12-08T13:20:54Z</time>
      </trkpt>
      <trkpt lat="47.90349" lon="-2.23509">
        <ele>47.796875</ele>
        <time>2013-12-08T13:21:03Z</time>
      </trkpt>
      <trkpt lat="47.90342" lon="-2.23519">
        <ele>46.398438</ele>
        <time>2013-12-08T13:21:14Z</time>
      </trkpt>
      <trkpt lat="47.90334" lon="-2.23528">
        <ele>45.398438</ele>
        <time>2013-12-08T13:21:26Z</time>
      </trkpt>
      <trkpt lat="47.90327" lon="-2.23537">
        <ele>44.898438</ele>
        <time>2013-12-08T13:21:34Z</time>
      </trkpt>
      <trkpt lat="47.90322" lon="-2.23549">
        <ele>44.5</ele>
        <time>2013-12-08T13:21:41Z</time>
      </trkpt>
      <trkpt lat="47.90302" lon="-2.23596">
        <ele>46.699219</ele>
        <time>2013-12-08T13:22:10Z</time>
      </trkpt>
      <trkpt lat="47.90295" lon="-2.23605">
        <ele>45.898438</ele>
        <time>2013-12-08T13:22:17Z</time>
      </trkpt>
      <trkpt lat="47.90287" lon="-2.23611">
        <ele>45.199219</ele>
        <time>2013-12-08T13:22:24Z</time>
      </trkpt>
      <trkpt lat="47.90277" lon="-2.23614">
        <ele>44</ele>
        <time>2013-12-08T13:22:32Z</time>
      </trkpt>
      <trkpt lat="47.90267" lon="-2.23615">
        <ele>43.796875</ele>
        <time>2013-12-08T13:22:40Z</time>
      </trkpt>
      <trkpt lat="47.90238" lon="-2.23618">
        <ele>43.597656</ele>
        <time>2013-12-08T13:23:04Z</time>
      </trkpt>
      <trkpt lat="47.90142" lon="-2.23628">
        <ele>43.398438</ele>
        <time>2013-12-08T13:24:24Z</time>
      </trkpt>
      <trkpt lat="47.90132" lon="-2.23627">
        <ele>42.898438</ele>
        <time>2013-12-08T13:24:32Z</time>
      </trkpt>
      <trkpt lat="47.90123" lon="-2.23624">
        <ele>43.097656</ele>
        <time>2013-12-08T13:24:40Z</time>
      </trkpt>
      <trkpt lat="47.90095" lon="-2.23617">
        <ele>47.199219</ele>
        <time>2013-12-08T13:25:06Z</time>
      </trkpt>
      <trkpt lat="47.90086" lon="-2.23613">
        <ele>41.898438</ele>
        <time>2013-12-08T13:25:14Z</time>
      </trkpt>
      <trkpt lat="47.90076" lon="-2.23604">
        <ele>43.5</ele>
        <time>2013-12-08T13:26:48Z</time>
      </trkpt>
      <trkpt lat="47.90066" lon="-2.23603">
        <ele>44.5</ele>
        <time>2013-12-08T13:27:01Z</time>
      </trkpt>
      <trkpt lat="47.90057" lon="-2.23601">
        <ele>44.097656</ele>
        <time>2013-12-08T13:27:10Z</time>
      </trkpt>
      <trkpt lat="47.90048" lon="-2.23598">
        <ele>44.296875</ele>
        <time>2013-12-08T13:27:20Z</time>
      </trkpt>
      <trkpt lat="47.90039" lon="-2.23594">
        <ele>43.898438</ele>
        <time>2013-12-08T13:27:28Z</time>
      </trkpt>
      <trkpt lat="47.90029" lon="-2.23592">
        <ele>44.097656</ele>
        <time>2013-12-08T13:27:36Z</time>
      </trkpt>
      <trkpt lat="47.9002" lon="-2.23592">
        <ele>45.699219</ele>
        <time>2013-12-08T13:27:44Z</time>
      </trkpt>
      <trkpt lat="47.90011" lon="-2.23597">
        <ele>46.5</ele>
        <time>2013-12-08T13:27:53Z</time>
      </trkpt>
      <trkpt lat="47.90004" lon="-2.23608">
        <ele>46.296875</ele>
        <time>2013-12-08T13:28:03Z</time>
      </trkpt>
      <trkpt lat="47.89985" lon="-2.2364">
        <ele>49.097656</ele>
        <time>2013-12-08T13:28:32Z</time>
      </trkpt>
      <trkpt lat="47.89976" lon="-2.23648">
        <ele>49.699219</ele>
        <time>2013-12-08T13:28:40Z</time>
      </trkpt>
      <trkpt lat="47.89967" lon="-2.23652">
        <ele>49.597656</ele>
        <time>2013-12-08T13:28:47Z</time>
      </trkpt>
      <trkpt lat="47.89958" lon="-2.23652">
        <ele>48.296875</ele>
        <time>2013-12-08T13:28:55Z</time>
      </trkpt>
      <trkpt lat="47.89949" lon="-2.23649">
        <ele>47.898438</ele>
        <time>2013-12-08T13:29:04Z</time>
      </trkpt>
      <trkpt lat="47.89941" lon="-2.23643">
        <ele>47.597656</ele>
        <time>2013-12-08T13:29:12Z</time>
      </trkpt>
      <trkpt lat="47.89925" lon="-2.2363">
        <ele>47.5</ele>
        <time>2013-12-08T13:29:29Z</time>
      </trkpt>
      <trkpt lat="47.89917" lon="-2.23623">
        <ele>45.898438</ele>
        <time>2013-12-08T13:29:37Z</time>
      </trkpt>
      <trkpt lat="47.89909" lon="-2.23614">
        <ele>45.097656</ele>
        <time>2013-12-08T13:29:45Z</time>
      </trkpt>
      <trkpt lat="47.89904" lon="-2.23602">
        <ele>45.296875</ele>
        <time>2013-12-08T13:29:53Z</time>
      </trkpt>
      <trkpt lat="47.899" lon="-2.2359">
        <ele>44.699219</ele>
        <time>2013-12-08T13:30:03Z</time>
      </trkpt>
      <trkpt lat="47.89896" lon="-2.23577">
        <ele>44</ele>
        <time>2013-12-08T13:30:12Z</time>
      </trkpt>
      <trkpt lat="47.89893" lon="-2.23564">
        <ele>43.796875</ele>
        <time>2013-12-08T13:30:21Z</time>
      </trkpt>
      <trkpt lat="47.89889" lon="-2.23551">
        <ele>44.898438</ele>
        <time>2013-12-08T13:30:31Z</time>
      </trkpt>
      <trkpt lat="47.89884" lon="-2.23539">
        <ele>44.796875</ele>
        <time>2013-12-08T13:30:39Z</time>
      </trkpt>
      <trkpt lat="47.89878" lon="-2.23527">
        <ele>44.898438</ele>
        <time>2013-12-08T13:30:47Z</time>
      </trkpt>
      <trkpt lat="47.89872" lon="-2.23517">
        <ele>44.796875</ele>
        <time>2013-12-08T13:30:55Z</time>
      </trkpt>
      <trkpt lat="47.89859" lon="-2.23496">
        <ele>42.199219</ele>
        <time>2013-12-08T13:31:10Z</time>
      </trkpt>
      <trkpt lat="47.89854" lon="-2.23485">
        <ele>40.796875</ele>
        <time>2013-12-08T13:31:17Z</time>
      </trkpt>
      <trkpt lat="47.89844" lon="-2.23461">
        <ele>41.796875</ele>
        <time>2013-12-08T13:31:32Z</time>
      </trkpt>
      <trkpt lat="47.8984" lon="-2.23448">
        <ele>42.699219</ele>
        <time>2013-12-08T13:31:41Z</time>
      </trkpt>
      <trkpt lat="47.89837" lon="-2.23435">
        <ele>42.398438</ele>
        <time>2013-12-08T13:31:49Z</time>
      </trkpt>
      <trkpt lat="47.89834" lon="-2.23422">
        <ele>41.097656</ele>
        <time>2013-12-08T13:31:57Z</time>
      </trkpt>
      <trkpt lat="47.89833" lon="-2.23407">
        <ele>40.199219</ele>
        <time>2013-12-08T13:32:05Z</time>
      </trkpt>
      <trkpt lat="47.89832" lon="-2.23392">
        <ele>39.398438</ele>
        <time>2013-12-08T13:32:15Z</time>
      </trkpt>
      <trkpt lat="47.89827" lon="-2.23379">
        <ele>39.597656</ele>
        <time>2013-12-08T13:32:23Z</time>
      </trkpt>
      <trkpt lat="47.89819" lon="-2.2337">
        <ele>41.097656</ele>
        <time>2013-12-08T13:32:31Z</time>
      </trkpt>
      <trkpt lat="47.89809" lon="-2.23365">
        <ele>42.398438</ele>
        <time>2013-12-08T13:32:40Z</time>
      </trkpt>
      <trkpt lat="47.898" lon="-2.23362">
        <ele>44.199219</ele>
        <time>2013-12-08T13:32:48Z</time>
      </trkpt>
      <trkpt lat="47.89773" lon="-2.23356">
        <ele>46.199219</ele>
        <time>2013-12-08T13:33:13Z</time>
      </trkpt>
      <trkpt lat="47.89763" lon="-2.23352">
        <ele>47.097656</ele>
        <time>2013-12-08T13:33:22Z</time>
      </trkpt>
      <trkpt lat="47.89642" lon="-2.23315">
        <ele>54.5</ele>
        <time>2013-12-08T13:35:07Z</time>
      </trkpt>
      <trkpt lat="47.89623" lon="-2.23311">
        <ele>53.699219</ele>
        <time>2013-12-08T13:35:24Z</time>
      </trkpt>
      <trkpt lat="47.89604" lon="-2.23308">
        <ele>53.5</ele>
        <time>2013-12-08T13:35:41Z</time>
      </trkpt>
      <trkpt lat="47.89595" lon="-2.23304">
        <ele>52.5</ele>
        <time>2013-12-08T13:35:50Z</time>
      </trkpt>
      <trkpt lat="47.8951" lon="-2.23276">
        <ele>53.296875</ele>
        <time>2013-12-08T13:37:07Z</time>
      </trkpt>
      <trkpt lat="47.89445" lon="-2.23259">
        <ele>50.097656</ele>
        <time>2013-12-08T13:38:06Z</time>
      </trkpt>
      <trkpt lat="47.89436" lon="-2.23255">
        <ele>50.796875</ele>
        <time>2013-12-08T13:38:14Z</time>
      </trkpt>
      <trkpt lat="47.89407" lon="-2.23248">
        <ele>56</ele>
        <time>2013-12-08T13:38:41Z</time>
      </trkpt>
      <trkpt lat="47.89399" lon="-2.23243">
        <ele>56.398438</ele>
        <time>2013-12-08T13:38:49Z</time>
      </trkpt>
      <trkpt lat="47.89389" lon="-2.23238">
        <ele>56.597656</ele>
        <time>2013-12-08T13:38:57Z</time>
      </trkpt>
      <trkpt lat="47.89381" lon="-2.2323">
        <ele>56.5</ele>
        <time>2013-12-08T13:39:05Z</time>
      </trkpt>
      <trkpt lat="47.89378" lon="-2.23217">
        <ele>56.097656</ele>
        <time>2013-12-08T13:39:15Z</time>
      </trkpt>
      <trkpt lat="47.89382" lon="-2.23204">
        <ele>55.898438</ele>
        <time>2013-12-08T13:39:24Z</time>
      </trkpt>
      <trkpt lat="47.89382" lon="-2.23188">
        <ele>55.796875</ele>
        <time>2013-12-08T13:39:32Z</time>
      </trkpt>
      <trkpt lat="47.89384" lon="-2.23174">
        <ele>55</ele>
        <time>2013-12-08T13:39:40Z</time>
      </trkpt>
      <trkpt lat="47.89386" lon="-2.23161">
        <ele>54.5</ele>
        <time>2013-12-08T13:39:48Z</time>
      </trkpt>
      <trkpt lat="47.89413" lon="-2.22997">
        <ele>52.398438</ele>
        <time>2013-12-08T13:41:29Z</time>
      </trkpt>
      <trkpt lat="47.89434" lon="-2.22872">
        <ele>51</ele>
        <time>2013-12-08T13:42:45Z</time>
      </trkpt>
      <trkpt lat="47.89436" lon="-2.22858">
        <ele>49.898438</ele>
        <time>2013-12-08T13:42:54Z</time>
      </trkpt>
      <trkpt lat="47.89439" lon="-2.22845">
        <ele>49.398438</ele>
        <time>2013-12-08T13:43:04Z</time>
      </trkpt>
      <trkpt lat="47.89439" lon="-2.22831">
        <ele>50.898438</ele>
        <time>2013-12-08T13:43:12Z</time>
      </trkpt>
      <trkpt lat="47.89432" lon="-2.22821">
        <ele>51.597656</ele>
        <time>2013-12-08T13:43:22Z</time>
      </trkpt>
      <trkpt lat="47.89423" lon="-2.22816">
        <ele>52.796875</ele>
        <time>2013-12-08T13:43:32Z</time>
      </trkpt>
      <trkpt lat="47.89414" lon="-2.22813">
        <ele>53.796875</ele>
        <time>2013-12-08T13:43:42Z</time>
      </trkpt>
      <trkpt lat="47.89406" lon="-2.22806">
        <ele>53.5</ele>
        <time>2013-12-08T13:43:58Z</time>
      </trkpt>
      <trkpt lat="47.89397" lon="-2.22802">
        <ele>53</ele>
        <time>2013-12-08T13:44:07Z</time>
      </trkpt>
      <trkpt lat="47.89388" lon="-2.22799">
        <ele>54.097656</ele>
        <time>2013-12-08T13:44:16Z</time>
      </trkpt>
      <trkpt lat="47.8921" lon="-2.22746">
        <ele>60.097656</ele>
        <time>2013-12-08T13:47:02Z</time>
      </trkpt>
      <trkpt lat="47.89191" lon="-2.22742">
        <ele>58.796875</ele>
        <time>2013-12-08T13:47:18Z</time>
      </trkpt>
      <trkpt lat="47.89183" lon="-2.22737">
        <ele>58</ele>
        <time>2013-12-08T13:47:26Z</time>
      </trkpt>
      <trkpt lat="47.89179" lon="-2.22723">
        <ele>57.5</ele>
        <time>2013-12-08T13:47:35Z</time>
      </trkpt>
      <trkpt lat="47.8918" lon="-2.2271">
        <ele>56.199219</ele>
        <time>2013-12-08T13:47:43Z</time>
      </trkpt>
      <trkpt lat="47.89183" lon="-2.22667">
        <ele>56.796875</ele>
        <time>2013-12-08T13:48:11Z</time>
      </trkpt>
      <trkpt lat="47.89185" lon="-2.22652">
        <ele>57.398438</ele>
        <time>2013-12-08T13:48:21Z</time>
      </trkpt>
      <trkpt lat="47.89192" lon="-2.22582">
        <ele>58.199219</ele>
        <time>2013-12-08T13:49:02Z</time>
      </trkpt>
      <trkpt lat="47.89193" lon="-2.22567">
        <ele>57.898438</ele>
        <time>2013-12-08T13:49:10Z</time>
      </trkpt>
      <trkpt lat="47.89195" lon="-2.22554">
        <ele>57.597656</ele>
        <time>2013-12-08T13:49:18Z</time>
      </trkpt>
      <trkpt lat="47.89206" lon="-2.22484">
        <ele>60.699219</ele>
        <time>2013-12-08T13:49:59Z</time>
      </trkpt>
      <trkpt lat="47.89206" lon="-2.2247">
        <ele>61.597656</ele>
        <time>2013-12-08T13:50:07Z</time>
      </trkpt>
      <trkpt lat="47.89203" lon="-2.22456">
        <ele>62.796875</ele>
        <time>2013-12-08T13:50:16Z</time>
      </trkpt>
      <trkpt lat="47.89197" lon="-2.22445">
        <ele>63.796875</ele>
        <time>2013-12-08T13:50:25Z</time>
      </trkpt>
      <trkpt lat="47.8919" lon="-2.22436">
        <ele>64</ele>
        <time>2013-12-08T13:50:34Z</time>
      </trkpt>
      <trkpt lat="47.89182" lon="-2.22428">
        <ele>64.898438</ele>
        <time>2013-12-08T13:50:44Z</time>
      </trkpt>
      <trkpt lat="47.89174" lon="-2.22422">
        <ele>64.898438</ele>
        <time>2013-12-08T13:50:53Z</time>
      </trkpt>
      <trkpt lat="47.89167" lon="-2.22411">
        <ele>65.097656</ele>
        <time>2013-12-08T13:51:02Z</time>
      </trkpt>
      <trkpt lat="47.89166" lon="-2.22397">
        <ele>65.597656</ele>
        <time>2013-12-08T13:51:10Z</time>
      </trkpt>
      <trkpt lat="47.89166" lon="-2.22383">
        <ele>65.699219</ele>
        <time>2013-12-08T13:51:19Z</time>
      </trkpt>
      <trkpt lat="47.89167" lon="-2.22355">
        <ele>69.898438</ele>
        <time>2013-12-08T13:51:35Z</time>
      </trkpt>
      <trkpt lat="47.89166" lon="-2.2234">
        <ele>69.796875</ele>
        <time>2013-12-08T13:51:44Z</time>
      </trkpt>
      <trkpt lat="47.89164" lon="-2.22327">
        <ele>70.097656</ele>
        <time>2013-12-08T13:51:52Z</time>
      </trkpt>
      <trkpt lat="47.8916" lon="-2.22314">
        <ele>69.597656</ele>
        <time>2013-12-08T13:52:01Z</time>
      </trkpt>
      <trkpt lat="47.89151" lon="-2.22307">
        <ele>69.296875</ele>
        <time>2013-12-08T13:52:11Z</time>
      </trkpt>
      <trkpt lat="47.89142" lon="-2.22303">
        <ele>68.898438</ele>
        <time>2013-12-08T13:52:20Z</time>
      </trkpt>
      <trkpt lat="47.89133" lon="-2.223">
        <ele>68.898438</ele>
        <time>2013-12-08T13:52:29Z</time>
      </trkpt>
      <trkpt lat="47.89114" lon="-2.22297">
        <ele>69.199219</ele>
        <time>2013-12-08T13:52:50Z</time>
      </trkpt>
      <trkpt lat="47.89105" lon="-2.22297">
        <ele>68.898438</ele>
        <time>2013-12-08T13:52:58Z</time>
      </trkpt>
      <trkpt lat="47.89013" lon="-2.22293">
        <ele>69</ele>
        <time>2013-12-08T13:54:20Z</time>
      </trkpt>
      <trkpt lat="47.89004" lon="-2.22294">
        <ele>69.097656</ele>
        <time>2013-12-08T13:54:28Z</time>
      </trkpt>
      <trkpt lat="47.88985" lon="-2.22295">
        <ele>72.097656</ele>
        <time>2013-12-08T13:54:46Z</time>
      </trkpt>
      <trkpt lat="47.88975" lon="-2.22287">
        <ele>70.699219</ele>
        <time>2013-12-08T13:55:48Z</time>
      </trkpt>
      <trkpt lat="47.88965" lon="-2.22288">
        <ele>69.597656</ele>
        <time>2013-12-08T13:55:58Z</time>
      </trkpt>
      <trkpt lat="47.8889" lon="-2.22294">
        <ele>68.597656</ele>
        <time>2013-12-08T13:57:07Z</time>
      </trkpt>
      <trkpt lat="47.8888" lon="-2.22293">
        <ele>73.097656</ele>
        <time>2013-12-08T13:57:16Z</time>
      </trkpt>
      <trkpt lat="47.88872" lon="-2.22286">
        <ele>72.699219</ele>
        <time>2013-12-08T13:57:34Z</time>
      </trkpt>
      <trkpt lat="47.88863" lon="-2.22282">
        <ele>73.597656</ele>
        <time>2013-12-08T13:57:44Z</time>
      </trkpt>
      <trkpt lat="47.88855" lon="-2.22276">
        <ele>74.097656</ele>
        <time>2013-12-08T13:57:53Z</time>
      </trkpt>
      <trkpt lat="47.88848" lon="-2.22267">
        <ele>74.699219</ele>
        <time>2013-12-08T13:58:01Z</time>
      </trkpt>
      <trkpt lat="47.88834" lon="-2.22249">
        <ele>76.199219</ele>
        <time>2013-12-08T13:58:17Z</time>
      </trkpt>
      <trkpt lat="47.8878" lon="-2.2217">
        <ele>78.597656</ele>
        <time>2013-12-08T13:59:29Z</time>
      </trkpt>
      <trkpt lat="47.88774" lon="-2.22158">
        <ele>79.097656</ele>
        <time>2013-12-08T13:59:38Z</time>
      </trkpt>
      <trkpt lat="47.88769" lon="-2.22145">
        <ele>78.898438</ele>
        <time>2013-12-08T13:59:48Z</time>
      </trkpt>
      <trkpt lat="47.88766" lon="-2.22132">
        <ele>77.597656</ele>
        <time>2013-12-08T13:59:56Z</time>
      </trkpt>
      <trkpt lat="47.88763" lon="-2.22119">
        <ele>77.398438</ele>
        <time>2013-12-08T14:00:05Z</time>
      </trkpt>
      <trkpt lat="47.88762" lon="-2.22105">
        <ele>78.699219</ele>
        <time>2013-12-08T14:00:14Z</time>
      </trkpt>
      <trkpt lat="47.88757" lon="-2.22061">
        <ele>76.898438</ele>
        <time>2013-12-08T14:00:41Z</time>
      </trkpt>
      <trkpt lat="47.88757" lon="-2.22033">
        <ele>75.796875</ele>
        <time>2013-12-08T14:00:59Z</time>
      </trkpt>
      <trkpt lat="47.8876" lon="-2.22018">
        <ele>75.398438</ele>
        <time>2013-12-08T14:01:08Z</time>
      </trkpt>
      <trkpt lat="47.88761" lon="-2.22005">
        <ele>74.699219</ele>
        <time>2013-12-08T14:01:15Z</time>
      </trkpt>
      <trkpt lat="47.88765" lon="-2.21991">
        <ele>72.5</ele>
        <time>2013-12-08T14:01:23Z</time>
      </trkpt>
      <trkpt lat="47.88783" lon="-2.21924">
        <ele>75.398438</ele>
        <time>2013-12-08T14:02:01Z</time>
      </trkpt>
      <trkpt lat="47.88785" lon="-2.2191">
        <ele>75.199219</ele>
        <time>2013-12-08T14:02:09Z</time>
      </trkpt>
      <trkpt lat="47.88785" lon="-2.21895">
        <ele>74.097656</ele>
        <time>2013-12-08T14:02:18Z</time>
      </trkpt>
      <trkpt lat="47.88782" lon="-2.21881">
        <ele>74.199219</ele>
        <time>2013-12-08T14:02:27Z</time>
      </trkpt>
      <trkpt lat="47.88777" lon="-2.21871">
        <ele>75.5</ele>
        <time>2013-12-08T14:02:36Z</time>
      </trkpt>
      <trkpt lat="47.8877" lon="-2.21862">
        <ele>76.199219</ele>
        <time>2013-12-08T14:02:45Z</time>
      </trkpt>
      <trkpt lat="47.88755" lon="-2.21845">
        <ele>76.296875</ele>
        <time>2013-12-08T14:03:03Z</time>
      </trkpt>
      <trkpt lat="47.88732" lon="-2.21821">
        <ele>79.199219</ele>
        <time>2013-12-08T14:03:32Z</time>
      </trkpt>
      <trkpt lat="47.88724" lon="-2.21815">
        <ele>80.199219</ele>
        <time>2013-12-08T14:03:40Z</time>
      </trkpt>
      <trkpt lat="47.88707" lon="-2.21801">
        <ele>80.796875</ele>
        <time>2013-12-08T14:04:04Z</time>
      </trkpt>
      <trkpt lat="47.88698" lon="-2.21797">
        <ele>80.898438</ele>
        <time>2013-12-08T14:04:14Z</time>
      </trkpt>
      <trkpt lat="47.8868" lon="-2.21788">
        <ele>82.597656</ele>
        <time>2013-12-08T14:04:32Z</time>
      </trkpt>
      <trkpt lat="47.88653" lon="-2.21773">
        <ele>85.5</ele>
        <time>2013-12-08T14:04:58Z</time>
      </trkpt>
      <trkpt lat="47.88644" lon="-2.21771">
        <ele>85.898438</ele>
        <time>2013-12-08T14:05:06Z</time>
      </trkpt>
      <trkpt lat="47.88635" lon="-2.2177">
        <ele>86.5</ele>
        <time>2013-12-08T14:05:15Z</time>
      </trkpt>
      <trkpt lat="47.88626" lon="-2.21772">
        <ele>86.796875</ele>
        <time>2013-12-08T14:05:24Z</time>
      </trkpt>
      <trkpt lat="47.88616" lon="-2.21775">
        <ele>87.199219</ele>
        <time>2013-12-08T14:05:33Z</time>
      </trkpt>
      <trkpt lat="47.88588" lon="-2.21787">
        <ele>88.796875</ele>
        <time>2013-12-08T14:06:01Z</time>
      </trkpt>
      <trkpt lat="47.88579" lon="-2.21787">
        <ele>86.699219</ele>
        <time>2013-12-08T14:06:10Z</time>
      </trkpt>
      <trkpt lat="47.88569" lon="-2.21783">
        <ele>90</ele>
        <time>2013-12-08T14:08:09Z</time>
      </trkpt>
      <trkpt lat="47.8856" lon="-2.21783">
        <ele>93.199219</ele>
        <time>2013-12-08T14:08:20Z</time>
      </trkpt>
      <trkpt lat="47.88532" lon="-2.21783">
        <ele>96</ele>
        <time>2013-12-08T14:08:51Z</time>
      </trkpt>
      <trkpt lat="47.88523" lon="-2.21781">
        <ele>97.699219</ele>
        <time>2013-12-08T14:09:00Z</time>
      </trkpt>
      <trkpt lat="47.88514" lon="-2.21778">
        <ele>98.898438</ele>
        <time>2013-12-08T14:09:09Z</time>
      </trkpt>
      <trkpt lat="47.88506" lon="-2.21772">
        <ele>99.199219</ele>
        <time>2013-12-08T14:09:18Z</time>
      </trkpt>
      <trkpt lat="47.88497" lon="-2.21764">
        <ele>100.097656</ele>
        <time>2013-12-08T14:09:27Z</time>
      </trkpt>
      <trkpt lat="47.88489" lon="-2.21759">
        <ele>102.296875</ele>
        <time>2013-12-08T14:09:35Z</time>
      </trkpt>
      <trkpt lat="47.88436" lon="-2.21725">
        <ele>101.796875</ele>
        <time>2013-12-08T14:10:27Z</time>
      </trkpt>
      <trkpt lat="47.88427" lon="-2.21721">
        <ele>101.5</ele>
        <time>2013-12-08T14:10:35Z</time>
      </trkpt>
      <trkpt lat="47.88408" lon="-2.21714">
        <ele>100.199219</ele>
        <time>2013-12-08T14:10:52Z</time>
      </trkpt>
      <trkpt lat="47.88398" lon="-2.21712">
        <ele>98.796875</ele>
        <time>2013-12-08T14:11:00Z</time>
      </trkpt>
      <trkpt lat="47.88389" lon="-2.21708">
        <ele>100.097656</ele>
        <time>2013-12-08T14:11:08Z</time>
      </trkpt>
      <trkpt lat="47.8838" lon="-2.21706">
        <ele>100.296875</ele>
        <time>2013-12-08T14:11:16Z</time>
      </trkpt>
      <trkpt lat="47.88371" lon="-2.21704">
        <ele>101</ele>
        <time>2013-12-08T14:11:24Z</time>
      </trkpt>
      <trkpt lat="47.88353" lon="-2.21697">
        <ele>101.398438</ele>
        <time>2013-12-08T14:11:41Z</time>
      </trkpt>
      <trkpt lat="47.88343" lon="-2.21696">
        <ele>102.296875</ele>
        <time>2013-12-08T14:11:50Z</time>
      </trkpt>
      <trkpt lat="47.88333" lon="-2.21696">
        <ele>101.5</ele>
        <time>2013-12-08T14:11:59Z</time>
      </trkpt>
      <trkpt lat="47.88324" lon="-2.21693">
        <ele>102.898438</ele>
        <time>2013-12-08T14:12:07Z</time>
      </trkpt>
      <trkpt lat="47.88315" lon="-2.2169">
        <ele>107.699219</ele>
        <time>2013-12-08T14:12:15Z</time>
      </trkpt>
      <trkpt lat="47.88305" lon="-2.21685">
        <ele>108</ele>
        <time>2013-12-08T14:12:23Z</time>
      </trkpt>
      <trkpt lat="47.88297" lon="-2.2168">
        <ele>107.699219</ele>
        <time>2013-12-08T14:12:30Z</time>
      </trkpt>
      <trkpt lat="47.88292" lon="-2.21668">
        <ele>106.699219</ele>
        <time>2013-12-08T14:12:41Z</time>
      </trkpt>
      <trkpt lat="47.88291" lon="-2.21654">
        <ele>106.296875</ele>
        <time>2013-12-08T14:12:53Z</time>
      </trkpt>
      <trkpt lat="47.8829" lon="-2.21626">
        <ele>107.898438</ele>
        <time>2013-12-08T14:13:12Z</time>
      </trkpt>
      <trkpt lat="47.88292" lon="-2.21613">
        <ele>109.898438</ele>
        <time>2013-12-08T14:13:22Z</time>
      </trkpt>
      <trkpt lat="47.88297" lon="-2.21576">
        <ele>114.699219</ele>
        <time>2013-12-08T14:13:49Z</time>
      </trkpt>
      <trkpt lat="47.88303" lon="-2.21556">
        <ele>113.296875</ele>
        <time>2013-12-08T14:14:06Z</time>
      </trkpt>
      <trkpt lat="47.88306" lon="-2.21543">
        <ele>113.597656</ele>
        <time>2013-12-08T14:14:15Z</time>
      </trkpt>
      <trkpt lat="47.88307" lon="-2.21529">
        <ele>113.097656</ele>
        <time>2013-12-08T14:14:24Z</time>
      </trkpt>
      <trkpt lat="47.88311" lon="-2.21485">
        <ele>113.5</ele>
        <time>2013-12-08T14:14:48Z</time>
      </trkpt>
      <trkpt lat="47.88313" lon="-2.21471">
        <ele>116.5</ele>
        <time>2013-12-08T14:14:56Z</time>
      </trkpt>
      <trkpt lat="47.88315" lon="-2.21458">
        <ele>118.898438</ele>
        <time>2013-12-08T14:15:05Z</time>
      </trkpt>
      <trkpt lat="47.88316" lon="-2.21443">
        <ele>120</ele>
        <time>2013-12-08T14:15:16Z</time>
      </trkpt>
      <trkpt lat="47.88316" lon="-2.21428">
        <ele>116.898438</ele>
        <time>2013-12-08T14:15:27Z</time>
      </trkpt>
      <trkpt lat="47.88318" lon="-2.21414">
        <ele>114.597656</ele>
        <time>2013-12-08T14:15:36Z</time>
      </trkpt>
      <trkpt lat="47.88319" lon="-2.21401">
        <ele>113.699219</ele>
        <time>2013-12-08T14:15:44Z</time>
      </trkpt>
      <trkpt lat="47.88322" lon="-2.21386">
        <ele>113.5</ele>
        <time>2013-12-08T14:15:53Z</time>
      </trkpt>
      <trkpt lat="47.88338" lon="-2.21275">
        <ele>117</ele>
        <time>2013-12-08T14:17:00Z</time>
      </trkpt>
      <trkpt lat="47.88339" lon="-2.21261">
        <ele>117.398438</ele>
        <time>2013-12-08T14:17:08Z</time>
      </trkpt>
      <trkpt lat="47.88341" lon="-2.21247">
        <ele>119.5</ele>
        <time>2013-12-08T14:17:16Z</time>
      </trkpt>
      <trkpt lat="47.88345" lon="-2.21204">
        <ele>122.597656</ele>
        <time>2013-12-08T14:17:40Z</time>
      </trkpt>
      <trkpt lat="47.88341" lon="-2.21192">
        <ele>123.597656</ele>
        <time>2013-12-08T14:17:51Z</time>
      </trkpt>
      <trkpt lat="47.88332" lon="-2.21186">
        <ele>123.398438</ele>
        <time>2013-12-08T14:18:01Z</time>
      </trkpt>
      <trkpt lat="47.88323" lon="-2.21183">
        <ele>124.699219</ele>
        <time>2013-12-08T14:18:11Z</time>
      </trkpt>
      <trkpt lat="47.88295" lon="-2.21176">
        <ele>120</ele>
        <time>2013-12-08T14:18:37Z</time>
      </trkpt>
      <trkpt lat="47.88285" lon="-2.21175">
        <ele>121.097656</ele>
        <time>2013-12-08T14:18:47Z</time>
      </trkpt>
      <trkpt lat="47.88267" lon="-2.21174">
        <ele>121.796875</ele>
        <time>2013-12-08T14:19:04Z</time>
      </trkpt>
      <trkpt lat="47.8822" lon="-2.21172">
        <ele>122.5</ele>
        <time>2013-12-08T14:19:39Z</time>
      </trkpt>
      <trkpt lat="47.88211" lon="-2.21173">
        <ele>123.097656</ele>
        <time>2013-12-08T14:19:47Z</time>
      </trkpt>
      <trkpt lat="47.88115" lon="-2.21176">
        <ele>119.398438</ele>
        <time>2013-12-08T14:21:04Z</time>
      </trkpt>
      <trkpt lat="47.88087" lon="-2.21172">
        <ele>118.699219</ele>
        <time>2013-12-08T14:21:30Z</time>
      </trkpt>
      <trkpt lat="47.88077" lon="-2.2117">
        <ele>119</ele>
        <time>2013-12-08T14:21:39Z</time>
      </trkpt>
      <trkpt lat="47.88067" lon="-2.2117">
        <ele>118.097656</ele>
        <time>2013-12-08T14:21:47Z</time>
      </trkpt>
      <trkpt lat="47.88055" lon="-2.21167">
        <ele>118.097656</ele>
        <time>2013-12-08T14:22:05Z</time>
      </trkpt>
      <trkpt lat="47.88045" lon="-2.21165">
        <ele>118.097656</ele>
        <time>2013-12-08T14:22:14Z</time>
      </trkpt>
      <trkpt lat="47.88018" lon="-2.21154">
        <ele>121.597656</ele>
        <time>2013-12-08T14:22:46Z</time>
      </trkpt>
      <trkpt lat="47.8801" lon="-2.21147">
        <ele>121.597656</ele>
        <time>2013-12-08T14:22:57Z</time>
      </trkpt>
      <trkpt lat="47.87993" lon="-2.21134">
        <ele>120.882813</ele>
        <time>2013-12-08T14:23:15Z</time>
      </trkpt>
      <trkpt lat="47.87986" lon="-2.21124">
        <ele>121.535156</ele>
        <time>2013-12-08T14:23:27Z</time>
      </trkpt>
      <trkpt lat="47.87981" lon="-2.21113">
        <ele>122.199219</ele>
        <time>2013-12-08T14:23:46Z</time>
      </trkpt>
      <trkpt lat="47.87975" lon="-2.21094">
        <ele>124</ele>
        <time>2013-12-08T14:23:48Z</time>
      </trkpt>
      <trkpt lat="47.87967" lon="-2.21079">
        <ele>124.796875</ele>
        <time>2013-12-08T14:24:02Z</time>
      </trkpt>
      <trkpt lat="47.87958" lon="-2.21078">
        <ele>125.097656</ele>
        <time>2013-12-08T14:24:11Z</time>
      </trkpt>
      <trkpt lat="47.87948" lon="-2.21079">
        <ele>125.597656</ele>
        <time>2013-12-08T14:24:19Z</time>
      </trkpt>
      <trkpt lat="47.8794" lon="-2.21086">
        <ele>126.296875</ele>
        <time>2013-12-08T14:24:27Z</time>
      </trkpt>
      <trkpt lat="47.87933" lon="-2.21094">
        <ele>127.398438</ele>
        <time>2013-12-08T14:24:35Z</time>
      </trkpt>
      <trkpt lat="47.87903" lon="-2.21132">
        <ele>124.296875</ele>
        <time>2013-12-08T14:25:15Z</time>
      </trkpt>
      <trkpt lat="47.87895" lon="-2.21139">
        <ele>120.5</ele>
        <time>2013-12-08T14:25:31Z</time>
      </trkpt>
      <trkpt lat="47.87887" lon="-2.21133">
        <ele>117.898438</ele>
        <time>2013-12-08T14:25:46Z</time>
      </trkpt>
      <trkpt lat="47.87883" lon="-2.2112">
        <ele>117.699219</ele>
        <time>2013-12-08T14:25:57Z</time>
      </trkpt>
      <trkpt lat="47.87881" lon="-2.21107">
        <ele>117.296875</ele>
        <time>2013-12-08T14:26:07Z</time>
      </trkpt>
      <trkpt lat="47.87875" lon="-2.21096">
        <ele>116.597656</ele>
        <time>2013-12-08T14:26:19Z</time>
      </trkpt>
      <trkpt lat="47.87863" lon="-2.21074">
        <ele>115.199219</ele>
        <time>2013-12-08T14:26:43Z</time>
      </trkpt>
      <trkpt lat="47.87862" lon="-2.2106">
        <ele>116</ele>
        <time>2013-12-08T14:26:49Z</time>
      </trkpt>
      <trkpt lat="47.87863" lon="-2.21046">
        <ele>116.699219</ele>
        <time>2013-12-08T14:26:59Z</time>
      </trkpt>
      <trkpt lat="47.87865" lon="-2.21031">
        <ele>117.296875</ele>
        <time>2013-12-08T14:27:07Z</time>
      </trkpt>
      <trkpt lat="47.87867" lon="-2.21017">
        <ele>118</ele>
        <time>2013-12-08T14:27:15Z</time>
      </trkpt>
      <trkpt lat="47.87871" lon="-2.20991">
        <ele>119.121094</ele>
        <time>2013-12-08T14:29:36Z</time>
      </trkpt>
      <trkpt lat="47.87876" lon="-2.20977">
        <ele>122.5</ele>
        <time>2013-12-08T14:30:19Z</time>
      </trkpt>
      <trkpt lat="47.87877" lon="-2.20964">
        <ele>120.597656</ele>
        <time>2013-12-08T14:30:35Z</time>
      </trkpt>
      <trkpt lat="47.8787" lon="-2.20954">
        <ele>120</ele>
        <time>2013-12-08T14:30:49Z</time>
      </trkpt>
      <trkpt lat="47.87864" lon="-2.20943">
        <ele>118.5</ele>
        <time>2013-12-08T14:30:58Z</time>
      </trkpt>
      <trkpt lat="47.87859" lon="-2.20931">
        <ele>120.5</ele>
        <time>2013-12-08T14:31:07Z</time>
      </trkpt>
      <trkpt lat="47.87853" lon="-2.20921">
        <ele>121.199219</ele>
        <time>2013-12-08T14:31:16Z</time>
      </trkpt>
      <trkpt lat="47.87845" lon="-2.20915">
        <ele>119.097656</ele>
        <time>2013-12-08T14:31:26Z</time>
      </trkpt>
      <trkpt lat="47.87836" lon="-2.2091">
        <ele>116</ele>
        <time>2013-12-08T14:31:35Z</time>
      </trkpt>
      <trkpt lat="47.87823" lon="-2.20908">
        <ele>111.699219</ele>
        <time>2013-12-08T14:31:48Z</time>
      </trkpt>
      <trkpt lat="47.8776" lon="-2.20867">
        <ele>114.898438</ele>
        <time>2013-12-08T14:33:19Z</time>
      </trkpt>
      <trkpt lat="47.8775" lon="-2.20865">
        <ele>113.5</ele>
        <time>2013-12-08T14:33:25Z</time>
      </trkpt>
      <trkpt lat="47.8774" lon="-2.20866">
        <ele>113.597656</ele>
        <time>2013-12-08T14:33:32Z</time>
      </trkpt>
      <trkpt lat="47.8772" lon="-2.20869">
        <ele>113.699219</ele>
        <time>2013-12-08T14:33:48Z</time>
      </trkpt>
      <trkpt lat="47.8771" lon="-2.20867">
        <ele>111.898438</ele>
        <time>2013-12-08T14:33:57Z</time>
      </trkpt>
      <trkpt lat="47.87701" lon="-2.20868">
        <ele>111.398438</ele>
        <time>2013-12-08T14:34:05Z</time>
      </trkpt>
      <trkpt lat="47.87672" lon="-2.20873">
        <ele>111.097656</ele>
        <time>2013-12-08T14:34:29Z</time>
      </trkpt>
      <trkpt lat="47.87644" lon="-2.20883">
        <ele>114.296875</ele>
        <time>2013-12-08T14:34:54Z</time>
      </trkpt>
      <trkpt lat="47.87616" lon="-2.20895">
        <ele>114.699219</ele>
        <time>2013-12-08T14:35:19Z</time>
      </trkpt>
      <trkpt lat="47.87606" lon="-2.20895">
        <ele>115</ele>
        <time>2013-12-08T14:35:26Z</time>
      </trkpt>
      <trkpt lat="47.87569" lon="-2.20897">
        <ele>111.597656</ele>
        <time>2013-12-08T14:35:54Z</time>
      </trkpt>
      <trkpt lat="47.87481" lon="-2.20887">
        <ele>103.699219</ele>
        <time>2013-12-08T14:37:06Z</time>
      </trkpt>
      <trkpt lat="47.87471" lon="-2.20888">
        <ele>102.898438</ele>
        <time>2013-12-08T14:37:14Z</time>
      </trkpt>
      <trkpt lat="47.87462" lon="-2.2089">
        <ele>103</ele>
        <time>2013-12-08T14:37:21Z</time>
      </trkpt>
      <trkpt lat="47.87434" lon="-2.20899">
        <ele>100.796875</ele>
        <time>2013-12-08T14:37:45Z</time>
      </trkpt>
      <trkpt lat="47.87415" lon="-2.20906">
        <ele>99.898438</ele>
        <time>2013-12-08T14:38:02Z</time>
      </trkpt>
      <trkpt lat="47.87405" lon="-2.2091">
        <ele>98.699219</ele>
        <time>2013-12-08T14:38:10Z</time>
      </trkpt>
      <trkpt lat="47.87378" lon="-2.20927">
        <ele>101.898438</ele>
        <time>2013-12-08T14:38:34Z</time>
      </trkpt>
      <trkpt lat="47.87369" lon="-2.20933">
        <ele>104.398438</ele>
        <time>2013-12-08T14:38:41Z</time>
      </trkpt>
      <trkpt lat="47.87343" lon="-2.20956">
        <ele>109.597656</ele>
        <time>2013-12-08T14:39:04Z</time>
      </trkpt>
      <trkpt lat="47.87333" lon="-2.20958">
        <ele>107.5</ele>
        <time>2013-12-08T14:39:13Z</time>
      </trkpt>
      <trkpt lat="47.87324" lon="-2.20955">
        <ele>105.699219</ele>
        <time>2013-12-08T14:39:24Z</time>
      </trkpt>
      <trkpt lat="47.87315" lon="-2.20952">
        <ele>105</ele>
        <time>2013-12-08T14:39:32Z</time>
      </trkpt>
      <trkpt lat="47.87306" lon="-2.20946">
        <ele>103.898438</ele>
        <time>2013-12-08T14:39:41Z</time>
      </trkpt>
      <trkpt lat="47.87296" lon="-2.20947">
        <ele>102</ele>
        <time>2013-12-08T14:39:48Z</time>
      </trkpt>
      <trkpt lat="47.87286" lon="-2.20948">
        <ele>100.898438</ele>
        <time>2013-12-08T14:39:55Z</time>
      </trkpt>
      <trkpt lat="47.87277" lon="-2.20952">
        <ele>101.296875</ele>
        <time>2013-12-08T14:40:02Z</time>
      </trkpt>
      <trkpt lat="47.87268" lon="-2.20955">
        <ele>102.097656</ele>
        <time>2013-12-08T14:40:09Z</time>
      </trkpt>
      <trkpt lat="47.87258" lon="-2.20956">
        <ele>100.199219</ele>
        <time>2013-12-08T14:40:17Z</time>
      </trkpt>
      <trkpt lat="47.87249" lon="-2.20951">
        <ele>95.398438</ele>
        <time>2013-12-08T14:40:25Z</time>
      </trkpt>
      <trkpt lat="47.87241" lon="-2.20938">
        <ele>95.28125</ele>
        <time>2013-12-08T14:41:13Z</time>
      </trkpt>
    </trkseg>
  </trk>
</gpx>